Wetterdaten: Donnerstag, 01.05.2014
Datum Zeit Temp. Aussen +5cm Feuchte Auss Luftdruck Regen Sonnenschein Regendauer UV Solar Windben
01.05.2014 00:00 13,1 C 11,7 C 92 % 1011,7 hPa 0,0 l/m 0 min 0 min 0,0 UV-I 0 W/m 0,0 km/h (0 Bft)
01.05.2014 00:02 13,1 C 11,7 C 92 % 1011,7 hPa 0,0 l/m 0 min 0 min 0,0 UV-I 0 W/m 0,0 km/h (0 Bft)
01.05.2014 00:06 13,0 C 11,7 C 92 % 1011,8 hPa 0,0 l/m 0 min 0 min 0,0 UV-I 0 W/m 0,0 km/h (0 Bft)
01.05.2014 00:08 13,0 C 11,7 C 93 % 1011,7 hPa 0,0 l/m 0 min 0 min 0,0 UV-I 0 W/m 0,0 km/h (0 Bft)
01.05.2014 00:10 12,9 C 11,7 C 92 % 1011,7 hPa 0,0 l/m 0 min 0 min 0,0 UV-I 0 W/m 0,0 km/h (0 Bft)
01.05.2014 00:12 12,9 C 11,7 C 93 % 1011,7 hPa 0,0 l/m 0 min 0 min 0,0 UV-I 0 W/m 0,0 km/h (0 Bft)
01.05.2014 00:14 12,9 C 11,7 C 93 % 1011,6 hPa 0,0 l/m 0 min 0 min 0,0 UV-I 0 W/m 0,0 km/h (0 Bft)
01.05.2014 00:16 12,9 C 11,7 C 93 % 1011,6 hPa 0,0 l/m 0 min 0 min 0,0 UV-I 0 W/m 0,0 km/h (0 Bft)
01.05.2014 00:18 12,8 C 11,7 C 93 % 1011,6 hPa 0,0 l/m 0 min 0 min 0,0 UV-I 0 W/m 0,0 km/h (0 Bft)
01.05.2014 00:20 12,8 C 11,7 C 93 % 1011,7 hPa 0,0 l/m 0 min 0 min 0,0 UV-I 0 W/m 0,0 km/h (0 Bft)
01.05.2014 00:22 12,8 C 11,7 C 93 % 1011,7 hPa 0,0 l/m 0 min 0 min 0,0 UV-I 0 W/m 0,0 km/h (0 Bft)
01.05.2014 00:24 12,8 C 11,7 C 93 % 1011,7 hPa 0,0 l/m 0 min 0 min 0,0 UV-I 0 W/m 0,0 km/h (0 Bft)
01.05.2014 00:26 12,8 C 11,7 C 93 % 1011,7 hPa 0,0 l/m 0 min 0 min 0,0 UV-I 0 W/m 0,0 km/h (0 Bft)
01.05.2014 00:28 12,8 C 11,7 C 93 % 1011,7 hPa 0,0 l/m 0 min 0 min 0,0 UV-I 0 W/m 0,0 km/h (0 Bft)
01.05.2014 00:30 12,7 C 11,7 C 93 % 1011,7 hPa 0,0 l/m 0 min 0 min 0,0 UV-I 0 W/m 0,0 km/h (0 Bft)
01.05.2014 00:32 12,7 C 11,7 C 93 % 1011,7 hPa 0,0 l/m 0 min 0 min 0,0 UV-I 0 W/m 0,0 km/h (0 Bft)
01.05.2014 00:34 12,7 C 11,7 C 93 % 1011,7 hPa 0,0 l/m 0 min 0 min 0,0 UV-I 0 W/m 0,0 km/h (0 Bft)
01.05.2014 00:36 12,7 C 11,7 C 93 % 1011,7 hPa 0,0 l/m 0 min 0 min 0,0 UV-I 0 W/m 0,0 km/h (0 Bft)
01.05.2014 00:38 12,7 C 11,7 C 93 % 1011,6 hPa 0,0 l/m 0 min 0 min 0,0 UV-I 0 W/m 0,0 km/h (0 Bft)
01.05.2014 00:40 12,7 C 11,7 C 93 % 1011,6 hPa 0,0 l/m 0 min 0 min 0,0 UV-I 0 W/m 0,0 km/h (0 Bft)
01.05.2014 00:42 12,6 C 11,7 C 93 % 1011,6 hPa 0,0 l/m 0 min 0 min 0,0 UV-I 0 W/m 0,0 km/h (0 Bft)
01.05.2014 00:44 12,6 C 11,7 C 93 % 1011,6 hPa 0,0 l/m 0 min 0 min 0,0 UV-I 0 W/m 0,0 km/h (0 Bft)
01.05.2014 00:46 12,6 C 11,7 C 93 % 1011,7 hPa 0,0 l/m 0 min 0 min 0,0 UV-I 0 W/m 0,0 km/h (0 Bft)
01.05.2014 00:48 12,6 C 11,1 C 93 % 1011,7 hPa 0,0 l/m 0 min 0 min 0,0 UV-I 0 W/m 0,0 km/h (0 Bft)
01.05.2014 00:50 12,6 C 11,1 C 93 % 1011,7 hPa 0,0 l/m 0 min 0 min 0,0 UV-I 0 W/m 0,0 km/h (0 Bft)
01.05.2014 00:52 12,6 C 11,1 C 93 % 1011,7 hPa 0,0 l/m 0 min 0 min 0,0 UV-I 0 W/m 0,0 km/h (0 Bft)
01.05.2014 00:54 12,6 C 11,1 C 93 % 1011,7 hPa 0,0 l/m 0 min 0 min 0,0 UV-I 0 W/m 0,0 km/h (0 Bft)
01.05.2014 00:56 12,6 C 11,1 C 93 % 1011,7 hPa 0,0 l/m 0 min 0 min 0,0 UV-I 0 W/m 0,0 km/h (0 Bft)
01.05.2014 00:58 12,6 C 11,1 C 93 % 1011,7 hPa 0,0 l/m 0 min 0 min 0,0 UV-I 0 W/m 0,0 km/h (0 Bft)
01.05.2014 01:00 12,6 C 11,1 C 93 % 1011,7 hPa 0,0 l/m 0 min 0 min 0,0 UV-I 0 W/m 0,0 km/h (0 Bft)
01.05.2014 01:02 12,5 C 11,1 C 93 % 1011,7 hPa 0,0 l/m 0 min 0 min 0,0 UV-I 0 W/m 0,0 km/h (0 Bft)
01.05.2014 01:06 12,4 C 11,1 C 93 % 1011,7 hPa 0,0 l/m 0 min 0 min 0,0 UV-I 0 W/m 0,0 km/h (0 Bft)
01.05.2014 01:08 12,4 C 11,1 C 93 % 1011,7 hPa 0,0 l/m 0 min 0 min 0,0 UV-I 0 W/m 0,0 km/h (0 Bft)
01.05.2014 01:10 12,4 C 11,1 C 93 % 1011,7 hPa 0,0 l/m 0 min 0 min 0,0 UV-I 0 W/m 0,0 km/h (0 Bft)
01.05.2014 01:12 12,4 C 11,1 C 93 % 1011,7 hPa 0,0 l/m 0 min 0 min 0,0 UV-I 0 W/m 0,0 km/h (0 Bft)
01.05.2014 01:14 12,4 C 11,1 C 93 % 1011,7 hPa 0,0 l/m 0 min 0 min 0,0 UV-I 0 W/m 0,0 km/h (0 Bft)
01.05.2014 01:16 12,4 C 11,1 C 93 % 1011,7 hPa 0,0 l/m 0 min 0 min 0,0 UV-I 0 W/m 0,0 km/h (0 Bft)
01.05.2014 01:18 12,4 C 11,1 C 93 % 1011,7 hPa 0,0 l/m 0 min 0 min 0,0 UV-I 0 W/m 0,0 km/h (0 Bft)
01.05.2014 01:20 12,3 C 11,1 C 93 % 1011,6 hPa 0,0 l/m 0 min 0 min 0,0 UV-I 0 W/m 0,0 km/h (0 Bft)
01.05.2014 01:22 12,3 C 11,1 C 93 % 1011,7 hPa 0,0 l/m 0 min 0 min 0,0 UV-I 0 W/m 0,0 km/h (0 Bft)
01.05.2014 01:24 12,3 C 11,1 C 93 % 1011,7 hPa 0,0 l/m 0 min 0 min 0,0 UV-I 0 W/m 0,0 km/h (0 Bft)
01.05.2014 01:26 12,3 C 11,1 C 93 % 1011,6 hPa 0,0 l/m 0 min 0 min 0,0 UV-I 0 W/m 0,0 km/h (0 Bft)
01.05.2014 01:28 12,3 C 11,1 C 93 % 1011,7 hPa 0,0 l/m 0 min 0 min 0,0 UV-I 0 W/m 0,0 km/h (0 Bft)
01.05.2014 01:30 12,2 C 11,1 C 93 % 1011,6 hPa 0,0 l/m 0 min 0 min 0,0 UV-I 0 W/m 0,0 km/h (0 Bft)
01.05.2014 01:32 12,2 C 11,1 C 93 % 1011,7 hPa 0,0 l/m 0 min 0 min 0,0 UV-I 0 W/m 0,0 km/h (0 Bft)
01.05.2014 01:34 12,2 C 11,1 C 93 % 1011,6 hPa 0,0 l/m 0 min 0 min 0,0 UV-I 0 W/m 0,0 km/h (0 Bft)
01.05.2014 01:36 12,2 C 11,1 C 93 % 1011,6 hPa 0,0 l/m 0 min 0 min 0,0 UV-I 0 W/m 0,0 km/h (0 Bft)
01.05.2014 01:38 12,2 C 11,1 C 93 % 1011,6 hPa 0,0 l/m 0 min 0 min 0,0 UV-I 0 W/m 0,0 km/h (0 Bft)
01.05.2014 01:40 12,2 C 11,1 C 93 % 1011,6 hPa 0,0 l/m 0 min 0 min 0,0 UV-I 0 W/m 0,0 km/h (0 Bft)
01.05.2014 01:42 12,1 C 11,1 C 94 % 1011,6 hPa 0,0 l/m 0 min 0 min 0,0 UV-I 0 W/m 2,6 km/h (1 Bft)
01.05.2014 01:44 12,1 C 11,1 C 94 % 1011,6 hPa 0,0 l/m 0 min 0 min 0,0 UV-I 0 W/m 7,7 km/h (2 Bft)
01.05.2014 01:46 12,1 C 11,1 C 94 % 1011,6 hPa 0,0 l/m 0 min 0 min 0,0 UV-I 0 W/m 2,6 km/h (1 Bft)
01.05.2014 01:48 12,1 C 11,1 C 94 % 1011,6 hPa 0,0 l/m 0 min 0 min 0,0 UV-I 0 W/m 0,0 km/h (0 Bft)
01.05.2014 01:50 12,0 C 11,1 C 93 % 1011,6 hPa 0,0 l/m 0 min 0 min 0,0 UV-I 0 W/m 0,0 km/h (0 Bft)
01.05.2014 01:52 12,0 C 11,1 C 93 % 1011,6 hPa 0,0 l/m 0 min 0 min 0,0 UV-I 0 W/m 0,0 km/h (0 Bft)
01.05.2014 01:54 12,0 C 11,1 C 93 % 1011,6 hPa 0,0 l/m 0 min 0 min 0,0 UV-I 0 W/m 0,0 km/h (0 Bft)
01.05.2014 01:56 12,0 C 11,1 C 93 % 1011,6 hPa 0,0 l/m 0 min 0 min 0,0 UV-I 0 W/m 0,0 km/h (0 Bft)
01.05.2014 01:58 12,0 C 11,1 C 93 % 1011,6 hPa 0,0 l/m 0 min 0 min 0,0 UV-I 0 W/m 0,0 km/h (0 Bft)
01.05.2014 02:00 12,0 C 11,1 C 93 % 1011,6 hPa 0,0 l/m 0 min 0 min 0,0 UV-I 0 W/m 0,0 km/h (0 Bft)
01.05.2014 02:02 11,9 C 11,1 C 94 % 1011,6 hPa 0,0 l/m 0 min 0 min 0,0 UV-I 0 W/m 0,0 km/h (0 Bft)
01.05.2014 02:06 11,9 C 11,1 C 94 % 1011,6 hPa 0,0 l/m 0 min 0 min 0,0 UV-I 0 W/m 0,0 km/h (0 Bft)
01.05.2014 02:08 11,9 C 11,1 C 94 % 1011,6 hPa 0,0 l/m 0 min 0 min 0,0 UV-I 0 W/m 0,0 km/h (0 Bft)
01.05.2014 02:10 11,9 C 11,1 C 94 % 1011,6 hPa 0,0 l/m 0 min 0 min 0,0 UV-I 0 W/m 0,0 km/h (0 Bft)
01.05.2014 02:12 11,8 C 11,1 C 94 % 1011,6 hPa 0,0 l/m 0 min 0 min 0,0 UV-I 0 W/m 0,0 km/h (0 Bft)
01.05.2014 02:14 11,8 C 10,6 C 94 % 1011,6 hPa 0,0 l/m 0 min 0 min 0,0 UV-I 0 W/m 0,0 km/h (0 Bft)
01.05.2014 02:16 11,8 C 10,6 C 94 % 1011,5 hPa 0,0 l/m 0 min 0 min 0,0 UV-I 0 W/m 0,0 km/h (0 Bft)
01.05.2014 02:18 11,8 C 10,6 C 94 % 1011,6 hPa 0,0 l/m 0 min 0 min 0,0 UV-I 0 W/m 0,0 km/h (0 Bft)
01.05.2014 02:20 11,8 C 10,6 C 94 % 1011,6 hPa 0,0 l/m 0 min 0 min 0,0 UV-I 0 W/m 0,0 km/h (0 Bft)
01.05.2014 02:22 11,7 C 10,6 C 94 % 1011,6 hPa 0,0 l/m 0 min 0 min 0,0 UV-I 0 W/m 0,0 km/h (0 Bft)
01.05.2014 02:24 11,7 C 10,6 C 94 % 1011,6 hPa 0,0 l/m 0 min 0 min 0,0 UV-I 0 W/m 0,0 km/h (0 Bft)
01.05.2014 02:26 11,7 C 10,6 C 94 % 1011,6 hPa 0,0 l/m 0 min 0 min 0,0 UV-I 0 W/m 2,6 km/h (1 Bft)
01.05.2014 02:28 11,7 C 10,6 C 94 % 1011,5 hPa 0,0 l/m 0 min 0 min 0,0 UV-I 0 W/m 0,0 km/h (0 Bft)
01.05.2014 02:30 11,7 C 10,6 C 94 % 1011,6 hPa 0,0 l/m 0 min 0 min 0,0 UV-I 0 W/m 0,0 km/h (0 Bft)
01.05.2014 02:32 11,7 C 10,6 C 94 % 1011,6 hPa 0,0 l/m 0 min 0 min 0,0 UV-I 0 W/m 0,0 km/h (0 Bft)
01.05.2014 02:34 11,6 C 10,6 C 94 % 1011,5 hPa 0,0 l/m 0 min 0 min 0,0 UV-I 0 W/m 0,0 km/h (0 Bft)
01.05.2014 02:36 11,6 C 10,6 C 94 % 1011,5 hPa 0,0 l/m 0 min 0 min 0,0 UV-I 0 W/m 0,0 km/h (0 Bft)
01.05.2014 02:38 11,6 C 10,6 C 94 % 1011,5 hPa 0,0 l/m 0 min 0 min 0,0 UV-I 0 W/m 0,0 km/h (0 Bft)
01.05.2014 02:40 11,6 C 10,6 C 94 % 1011,5 hPa 0,0 l/m 0 min 0 min 0,0 UV-I 0 W/m 0,0 km/h (0 Bft)
01.05.2014 02:42 11,6 C 10,6 C 94 % 1011,5 hPa 0,0 l/m 0 min 0 min 0,0 UV-I 0 W/m 7,7 km/h (2 Bft)
01.05.2014 02:44 11,6 C 10,6 C 94 % 1011,4 hPa 0,0 l/m 0 min 0 min 0,0 UV-I 0 W/m 0,0 km/h (0 Bft)
01.05.2014 02:46 11,5 C 10,6 C 94 % 1011,5 hPa 0,0 l/m 0 min 0 min 0,0 UV-I 0 W/m 0,0 km/h (0 Bft)
01.05.2014 02:48 11,5 C 10,6 C 94 % 1011,5 hPa 0,0 l/m 0 min 0 min 0,0 UV-I 0 W/m 0,0 km/h (0 Bft)
01.05.2014 02:50 11,5 C 10,6 C 94 % 1011,5 hPa 0,0 l/m 0 min 0 min 0,0 UV-I 0 W/m 5,1 km/h (1 Bft)
01.05.2014 02:52 11,4 C 10,6 C 94 % 1011,5 hPa 0,0 l/m 0 min 0 min 0,0 UV-I 0 W/m 5,1 km/h (1 Bft)
01.05.2014 02:54 11,4 C 10,6 C 94 % 1011,5 hPa 0,0 l/m 0 min 0 min 0,0 UV-I 0 W/m 0,0 km/h (0 Bft)
01.05.2014 02:56 11,4 C 10,6 C 94 % 1011,5 hPa 0,0 l/m 0 min 0 min 0,0 UV-I 0 W/m 0,0 km/h (0 Bft)
01.05.2014 02:58 11,4 C 10,6 C 94 % 1011,5 hPa 0,0 l/m 0 min 0 min 0,0 UV-I 0 W/m 0,0 km/h (0 Bft)
01.05.2014 03:00 11,4 C 10,6 C 94 % 1011,6 hPa 0,0 l/m 0 min 0 min 0,0 UV-I 0 W/m 0,0 km/h (0 Bft)
01.05.2014 03:02 11,4 C 10,6 C 94 % 1011,5 hPa 0,0 l/m 0 min 0 min 0,0 UV-I 0 W/m 0,0 km/h (0 Bft)
01.05.2014 03:06 11,4 C 10,6 C 94 % 1011,5 hPa 0,0 l/m 0 min 0 min 0,0 UV-I 0 W/m 0,0 km/h (0 Bft)
01.05.2014 03:08 11,4 C 10,6 C 94 % 1011,5 hPa 0,0 l/m 0 min 0 min 0,0 UV-I 0 W/m 0,0 km/h (0 Bft)
01.05.2014 03:10 11,4 C 10,6 C 94 % 1011,5 hPa 0,0 l/m 0 min 0 min 0,0 UV-I 0 W/m 0,0 km/h (0 Bft)
01.05.2014 03:12 11,4 C 10,6 C 94 % 1011,4 hPa 0,0 l/m 0 min 0 min 0,0 UV-I 0 W/m 0,0 km/h (0 Bft)
01.05.2014 03:14 11,3 C 10,6 C 94 % 1011,5 hPa 0,0 l/m 0 min 0 min 0,0 UV-I 0 W/m 0,0 km/h (0 Bft)
01.05.2014 03:16 11,3 C 10,6 C 94 % 1011,4 hPa 0,0 l/m 0 min 0 min 0,0 UV-I 0 W/m 0,0 km/h (0 Bft)
01.05.2014 03:18 11,3 C 10,6 C 94 % 1011,4 hPa 0,0 l/m 0 min 0 min 0,0 UV-I 0 W/m 0,0 km/h (0 Bft)
01.05.2014 03:20 11,3 C 10,6 C 94 % 1011,5 hPa 0,0 l/m 0 min 0 min 0,0 UV-I 0 W/m 0,0 km/h (0 Bft)
01.05.2014 03:22 11,3 C 10,6 C 94 % 1011,5 hPa 0,0 l/m 0 min 0 min 0,0 UV-I 0 W/m 0,0 km/h (0 Bft)
01.05.2014 03:24 11,3 C 10,6 C 94 % 1011,5 hPa 0,0 l/m 0 min 0 min 0,0 UV-I 0 W/m 0,0 km/h (0 Bft)
01.05.2014 03:26 11,3 C 10,6 C 94 % 1011,5 hPa 0,0 l/m 0 min 0 min 0,0 UV-I 0 W/m 0,0 km/h (0 Bft)
01.05.2014 03:28 11,2 C 10,6 C 95 % 1011,5 hPa 0,0 l/m 0 min 0 min 0,0 UV-I 0 W/m 0,0 km/h (0 Bft)
01.05.2014 03:30 11,2 C 10,6 C 95 % 1011,5 hPa 0,0 l/m 0 min 0 min 0,0 UV-I 0 W/m 0,0 km/h (0 Bft)
01.05.2014 03:32 11,2 C 10,6 C 95 % 1011,5 hPa 0,0 l/m 0 min 0 min 0,0 UV-I 0 W/m 0,0 km/h (0 Bft)
01.05.2014 03:34 11,2 C 10,6 C 95 % 1011,6 hPa 0,0 l/m 0 min 0 min 0,0 UV-I 0 W/m 0,0 km/h (0 Bft)
01.05.2014 03:36 11,2 C 10,6 C 95 % 1011,6 hPa 0,0 l/m 0 min 0 min 0,0 UV-I 0 W/m 0,0 km/h (0 Bft)
01.05.2014 03:38 11,2 C 10,6 C 95 % 1011,5 hPa 0,0 l/m 0 min 0 min 0,0 UV-I 0 W/m 0,0 km/h (0 Bft)
01.05.2014 03:40 11,2 C 10,6 C 95 % 1011,6 hPa 0,0 l/m 0 min 0 min 0,0 UV-I 0 W/m 0,0 km/h (0 Bft)
01.05.2014 03:42 11,2 C 10,6 C 95 % 1011,5 hPa 0,0 l/m 0 min 0 min 0,0 UV-I 0 W/m 0,0 km/h (0 Bft)
01.05.2014 03:44 11,1 C 10,0 C 95 % 1011,5 hPa 0,0 l/m 0 min 0 min 0,0 UV-I 0 W/m 0,0 km/h (0 Bft)
01.05.2014 03:46 11,1 C 10,0 C 95 % 1011,6 hPa 0,0 l/m 0 min 0 min 0,0 UV-I 0 W/m 0,0 km/h (0 Bft)
01.05.2014 03:48 11,1 C 10,0 C 95 % 1011,6 hPa 0,0 l/m 0 min 0 min 0,0 UV-I 0 W/m 0,0 km/h (0 Bft)
01.05.2014 03:50 11,1 C 10,0 C 95 % 1011,6 hPa 0,0 l/m 0 min 0 min 0,0 UV-I 0 W/m 0,0 km/h (0 Bft)
01.05.2014 03:52 11,1 C 10,0 C 95 % 1011,6 hPa 0,0 l/m 0 min 0 min 0,0 UV-I 0 W/m 5,1 km/h (1 Bft)
01.05.2014 03:54 11,0 C 10,0 C 95 % 1011,6 hPa 0,0 l/m 0 min 0 min 0,0 UV-I 0 W/m 5,1 km/h (1 Bft)
01.05.2014 03:56 11,0 C 10,0 C 95 % 1011,5 hPa 0,0 l/m 0 min 0 min 0,0 UV-I 0 W/m 0,0 km/h (0 Bft)
01.05.2014 03:58 10,9 C 10,0 C 95 % 1011,5 hPa 0,0 l/m 0 min 0 min 0,0 UV-I 0 W/m 2,6 km/h (1 Bft)
01.05.2014 04:00 10,9 C 10,0 C 95 % 1011,4 hPa 0,0 l/m 0 min 0 min 0,0 UV-I 0 W/m 0,0 km/h (0 Bft)
01.05.2014 04:05 10,8 C 10,0 C 95 % 1011,3 hPa 0,0 l/m 0 min 0 min 0,0 UV-I 0 W/m 0,0 km/h (0 Bft)
01.05.2014 04:06 10,8 C 10,0 C 95 % 1011,3 hPa 0,0 l/m 0 min 0 min 0,0 UV-I 0 W/m 0,0 km/h (0 Bft)
01.05.2014 04:08 10,8 C 10,0 C 95 % 1011,4 hPa 0,0 l/m 0 min 0 min 0,0 UV-I 0 W/m 0,0 km/h (0 Bft)
01.05.2014 04:10 10,8 C 10,0 C 95 % 1011,4 hPa 0,0 l/m 0 min 0 min 0,0 UV-I 0 W/m 0,0 km/h (0 Bft)
01.05.2014 04:12 10,7 C 10,0 C 95 % 1011,4 hPa 0,0 l/m 0 min 0 min 0,0 UV-I 0 W/m 0,0 km/h (0 Bft)
01.05.2014 04:14 10,7 C 10,0 C 95 % 1011,4 hPa 0,0 l/m 0 min 0 min 0,0 UV-I 0 W/m 0,0 km/h (0 Bft)
01.05.2014 04:16 10,7 C 10,0 C 95 % 1011,3 hPa 0,0 l/m 0 min 0 min 0,0 UV-I 0 W/m 0,0 km/h (0 Bft)
01.05.2014 04:18 10,7 C 10,0 C 95 % 1011,2 hPa 0,0 l/m 0 min 0 min 0,0 UV-I 0 W/m 0,0 km/h (0 Bft)
01.05.2014 04:20 10,7 C 10,0 C 95 % 1011,2 hPa 0,0 l/m 0 min 0 min 0,0 UV-I 0 W/m 5,1 km/h (1 Bft)
01.05.2014 04:22 10,6 C 10,0 C 95 % 1011,2 hPa 0,0 l/m 0 min 0 min 0,0 UV-I 0 W/m 5,1 km/h (1 Bft)
01.05.2014 04:24 10,6 C 10,0 C 95 % 1011,2 hPa 0,0 l/m 0 min 0 min 0,0 UV-I 0 W/m 5,1 km/h (1 Bft)
01.05.2014 04:26 10,6 C 10,0 C 95 % 1011,2 hPa 0,0 l/m 0 min 0 min 0,0 UV-I 0 W/m 5,1 km/h (1 Bft)
01.05.2014 04:28 10,6 C 10,0 C 95 % 1011,2 hPa 0,0 l/m 0 min 0 min 0,0 UV-I 0 W/m 5,1 km/h (1 Bft)
01.05.2014 04:30 10,6 C 10,0 C 95 % 1011,2 hPa 0,0 l/m 0 min 0 min 0,0 UV-I 0 W/m 0,0 km/h (0 Bft)
01.05.2014 04:32 10,6 C 10,0 C 95 % 1011,2 hPa 0,0 l/m 0 min 0 min 0,0 UV-I 0 W/m 0,0 km/h (0 Bft)
01.05.2014 04:34 10,6 C 10,0 C 95 % 1011,3 hPa 0,0 l/m 0 min 0 min 0,0 UV-I 0 W/m 0,0 km/h (0 Bft)
01.05.2014 04:36 10,5 C 10,0 C 95 % 1011,2 hPa 0,0 l/m 0 min 0 min 0,0 UV-I 0 W/m 2,6 km/h (1 Bft)
01.05.2014 04:38 10,5 C 10,0 C 95 % 1011,2 hPa 0,0 l/m 0 min 0 min 0,0 UV-I 0 W/m 0,0 km/h (0 Bft)
01.05.2014 04:40 10,4 C 10,0 C 95 % 1011,2 hPa 0,0 l/m 0 min 0 min 0,0 UV-I 0 W/m 0,0 km/h (0 Bft)
01.05.2014 04:42 10,5 C 9,4 C 95 % 1011,2 hPa 0,0 l/m 0 min 0 min 0,0 UV-I 0 W/m 0,0 km/h (0 Bft)
01.05.2014 04:44 10,4 C 9,4 C 95 % 1011,2 hPa 0,0 l/m 0 min 0 min 0,0 UV-I 0 W/m 0,0 km/h (0 Bft)
01.05.2014 04:46 10,4 C 9,4 C 95 % 1011,2 hPa 0,0 l/m 0 min 0 min 0,0 UV-I 0 W/m 0,0 km/h (0 Bft)
01.05.2014 04:48 10,4 C 9,4 C 95 % 1011,2 hPa 0,0 l/m 0 min 0 min 0,0 UV-I 0 W/m 0,0 km/h (0 Bft)
01.05.2014 04:50 10,4 C 9,4 C 95 % 1011,2 hPa 0,0 l/m 0 min 0 min 0,0 UV-I 0 W/m 0,0 km/h (0 Bft)
01.05.2014 04:52 10,4 C 9,4 C 95 % 1011,1 hPa 0,0 l/m 0 min 2 min 0,0 UV-I 0 W/m 0,0 km/h (0 Bft)
01.05.2014 04:54 10,4 C 9,4 C 95 % 1011,1 hPa 0,0 l/m 0 min 2 min 0,0 UV-I 0 W/m 5,1 km/h (1 Bft)
01.05.2014 04:56 10,4 C 9,4 C 95 % 1011,1 hPa 0,0 l/m 0 min 0 min 0,0 UV-I 0 W/m 0,0 km/h (0 Bft)
01.05.2014 04:58 10,4 C 9,4 C 95 % 1011,1 hPa 0,0 l/m 0 min 0 min 0,0 UV-I 0 W/m 0,0 km/h (0 Bft)
01.05.2014 05:00 10,4 C 9,4 C 95 % 1011,0 hPa 0,0 l/m 0 min 0 min 0,0 UV-I 0 W/m 0,0 km/h (0 Bft)
01.05.2014 05:02 10,4 C 9,4 C 95 % 1011,1 hPa 0,0 l/m 0 min 0 min 0,0 UV-I 0 W/m 0,0 km/h (0 Bft)
01.05.2014 05:06 10,4 C 9,4 C 95 % 1011,0 hPa 0,0 l/m 0 min 0 min 0,0 UV-I 0 W/m 2,6 km/h (1 Bft)
01.05.2014 05:08 10,3 C 9,4 C 95 % 1011,0 hPa 0,0 l/m 0 min 0 min 0,0 UV-I 0 W/m 0,0 km/h (0 Bft)
01.05.2014 05:10 10,3 C 9,4 C 95 % 1011,0 hPa 0,0 l/m 0 min 0 min 0,0 UV-I 0 W/m 0,0 km/h (0 Bft)
01.05.2014 05:12 10,3 C 9,4 C 95 % 1011,0 hPa 0,0 l/m 0 min 0 min 0,0 UV-I 0 W/m 0,0 km/h (0 Bft)
01.05.2014 05:14 10,2 C 9,4 C 95 % 1010,9 hPa 0,0 l/m 0 min 0 min 0,0 UV-I 0 W/m 0,0 km/h (0 Bft)
01.05.2014 05:16 10,2 C 8,9 C 95 % 1010,9 hPa 0,0 l/m 0 min 0 min 0,0 UV-I 0 W/m 0,0 km/h (0 Bft)
01.05.2014 05:18 10,1 C 8,9 C 96 % 1010,9 hPa 0,0 l/m 0 min 0 min 0,0 UV-I 0 W/m 0,0 km/h (0 Bft)
01.05.2014 05:20 10,1 C 8,9 C 95 % 1010,9 hPa 0,0 l/m 0 min 0 min 0,0 UV-I 0 W/m 0,0 km/h (0 Bft)
01.05.2014 05:22 10,1 C 8,9 C 95 % 1011,0 hPa 0,0 l/m 0 min 0 min 0,0 UV-I 0 W/m 0,0 km/h (0 Bft)
01.05.2014 05:24 10,0 C 8,9 C 95 % 1011,0 hPa 0,0 l/m 0 min 0 min 0,0 UV-I 0 W/m 0,0 km/h (0 Bft)
01.05.2014 05:26 9,9 C 8,9 C 95 % 1010,9 hPa 0,0 l/m 0 min 0 min 0,0 UV-I 0 W/m 0,0 km/h (0 Bft)
01.05.2014 05:28 9,9 C 8,9 C 96 % 1010,9 hPa 0,0 l/m 0 min 0 min 0,0 UV-I 0 W/m 5,1 km/h (1 Bft)
01.05.2014 05:30 9,9 C 8,9 C 96 % 1010,9 hPa 0,0 l/m 0 min 0 min 0,0 UV-I 0 W/m 5,1 km/h (1 Bft)
01.05.2014 05:32 9,9 C 8,9 C 96 % 1010,9 hPa 0,0 l/m 0 min 0 min 0,0 UV-I 0 W/m 0,0 km/h (0 Bft)
01.05.2014 05:34 9,9 C 8,9 C 96 % 1010,9 hPa 0,0 l/m 0 min 0 min 0,0 UV-I 0 W/m 0,0 km/h (0 Bft)
01.05.2014 05:36 10,0 C 8,9 C 96 % 1010,9 hPa 0,0 l/m 0 min 0 min 0,0 UV-I 0 W/m 0,0 km/h (0 Bft)
01.05.2014 05:38 10,0 C 8,9 C 96 % 1010,9 hPa 0,0 l/m 0 min 0 min 0,0 UV-I 0 W/m 0,0 km/h (0 Bft)
01.05.2014 05:40 10,1 C 8,9 C 96 % 1010,9 hPa 0,0 l/m 0 min 0 min 0,0 UV-I 0 W/m 0,0 km/h (0 Bft)
01.05.2014 05:42 10,1 C 9,4 C 96 % 1010,9 hPa 0,0 l/m 0 min 0 min 0,0 UV-I 0 W/m 0,0 km/h (0 Bft)
01.05.2014 05:44 10,1 C 9,4 C 96 % 1011,0 hPa 0,0 l/m 0 min 0 min 0,0 UV-I 0 W/m 0,0 km/h (0 Bft)
01.05.2014 05:46 10,1 C 9,4 C 96 % 1010,9 hPa 0,0 l/m 0 min 0 min 0,0 UV-I 0 W/m 0,0 km/h (0 Bft)
01.05.2014 05:48 10,1 C 9,4 C 96 % 1011,0 hPa 0,0 l/m 0 min 0 min 0,0 UV-I 0 W/m 0,0 km/h (0 Bft)
01.05.2014 05:50 10,1 C 8,9 C 96 % 1010,9 hPa 0,0 l/m 0 min 0 min 0,0 UV-I 0 W/m 0,0 km/h (0 Bft)
01.05.2014 05:52 10,0 C 8,9 C 96 % 1010,9 hPa 0,0 l/m 0 min 0 min 0,0 UV-I 0 W/m 0,0 km/h (0 Bft)
01.05.2014 05:54 10,0 C 8,9 C 96 % 1010,9 hPa 0,0 l/m 0 min 0 min 0,0 UV-I 0 W/m 0,0 km/h (0 Bft)
01.05.2014 05:56 9,9 C 8,9 C 96 % 1011,0 hPa 0,0 l/m 0 min 0 min 0,0 UV-I 0 W/m 0,0 km/h (0 Bft)
01.05.2014 05:58 9,9 C 8,9 C 96 % 1011,0 hPa 0,0 l/m 0 min 0 min 0,0 UV-I 0 W/m 0,0 km/h (0 Bft)
01.05.2014 06:00 9,9 C 8,9 C 96 % 1011,0 hPa 0,0 l/m 0 min 0 min 0,0 UV-I 0 W/m 0,0 km/h (0 Bft)
01.05.2014 06:02 9,9 C 8,9 C 96 % 1011,0 hPa 0,0 l/m 0 min 0 min 0,0 UV-I 0 W/m 0,0 km/h (0 Bft)
01.05.2014 06:06 9,9 C 8,9 C 96 % 1011,0 hPa 0,0 l/m 0 min 0 min 0,0 UV-I 0 W/m 0,0 km/h (0 Bft)
01.05.2014 06:08 9,9 C 8,9 C 96 % 1011,0 hPa 0,0 l/m 0 min 0 min 0,0 UV-I 0 W/m 0,0 km/h (0 Bft)
01.05.2014 06:10 9,9 C 8,9 C 96 % 1011,0 hPa 0,0 l/m 0 min 0 min 0,0 UV-I 0 W/m 0,0 km/h (0 Bft)
01.05.2014 06:12 9,9 C 8,9 C 96 % 1011,0 hPa 0,0 l/m 0 min 0 min 0,0 UV-I 5 W/m 0,0 km/h (0 Bft)
01.05.2014 06:14 9,9 C 8,9 C 96 % 1011,0 hPa 0,0 l/m 0 min 0 min 0,0 UV-I 5 W/m 0,0 km/h (0 Bft)
01.05.2014 06:16 9,9 C 8,9 C 96 % 1011,0 hPa 0,0 l/m 0 min 0 min 0,0 UV-I 5 W/m 0,0 km/h (0 Bft)
01.05.2014 06:18 9,9 C 8,9 C 96 % 1011,0 hPa 0,0 l/m 0 min 0 min 0,0 UV-I 7 W/m 0,0 km/h (0 Bft)
01.05.2014 06:20 9,9 C 8,9 C 96 % 1010,9 hPa 0,0 l/m 0 min 0 min 0,0 UV-I 7 W/m 0,0 km/h (0 Bft)
01.05.2014 06:22 9,9 C 8,9 C 96 % 1010,9 hPa 0,0 l/m 0 min 0 min 0,0 UV-I 9 W/m 0,0 km/h (0 Bft)
01.05.2014 06:24 9,9 C 8,9 C 96 % 1010,9 hPa 0,0 l/m 0 min 0 min 0,0 UV-I 11 W/m 0,0 km/h (0 Bft)
01.05.2014 06:26 9,9 C 8,9 C 96 % 1010,9 hPa 0,0 l/m 0 min 0 min 0,0 UV-I 12 W/m 0,0 km/h (0 Bft)
01.05.2014 06:28 9,9 C 8,9 C 96 % 1011,0 hPa 0,0 l/m 0 min 0 min 0,0 UV-I 12 W/m 0,0 km/h (0 Bft)
01.05.2014 06:30 9,9 C 8,9 C 96 % 1011,0 hPa 0,0 l/m 0 min 0 min 0,0 UV-I 14 W/m 0,0 km/h (0 Bft)
01.05.2014 06:32 9,9 C 8,9 C 96 % 1010,9 hPa 0,0 l/m 0 min 0 min 0,0 UV-I 16 W/m 0,0 km/h (0 Bft)
01.05.2014 06:34 9,9 C 8,9 C 96 % 1010,9 hPa 0,0 l/m 0 min 0 min 0,0 UV-I 18 W/m 0,0 km/h (0 Bft)
01.05.2014 06:36 9,9 C 8,9 C 96 % 1010,9 hPa 0,0 l/m 0 min 0 min 0,0 UV-I 18 W/m 0,0 km/h (0 Bft)
01.05.2014 06:38 9,9 C 8,9 C 96 % 1010,9 hPa 0,0 l/m 0 min 0 min 0,0 UV-I 19 W/m 0,0 km/h (0 Bft)
01.05.2014 06:40 9,9 C 8,9 C 96 % 1011,0 hPa 0,0 l/m 0 min 0 min 0,0 UV-I 18 W/m 0,0 km/h (0 Bft)
01.05.2014 06:42 9,9 C 8,9 C 96 % 1010,9 hPa 0,0 l/m 0 min 0 min 0,0 UV-I 18 W/m 0,0 km/h (0 Bft)
01.05.2014 06:44 9,9 C 8,9 C 96 % 1011,0 hPa 0,0 l/m 0 min 0 min 0,0 UV-I 18 W/m 0,0 km/h (0 Bft)
01.05.2014 06:46 9,9 C 8,9 C 96 % 1011,0 hPa 0,0 l/m 0 min 0 min 0,0 UV-I 18 W/m 0,0 km/h (0 Bft)
01.05.2014 06:48 9,9 C 8,9 C 96 % 1011,0 hPa 0,0 l/m 0 min 0 min 0,0 UV-I 19 W/m 0,0 km/h (0 Bft)
01.05.2014 06:50 9,9 C 8,9 C 96 % 1011,1 hPa 0,0 l/m 0 min 0 min 0,0 UV-I 19 W/m 0,0 km/h (0 Bft)
01.05.2014 06:52 9,9 C 8,9 C 96 % 1011,0 hPa 0,0 l/m 0 min 0 min 0,0 UV-I 19 W/m 0,0 km/h (0 Bft)
01.05.2014 06:54 9,9 C 8,9 C 96 % 1011,0 hPa 0,0 l/m 0 min 0 min 0,0 UV-I 19 W/m 0,0 km/h (0 Bft)
01.05.2014 06:56 9,9 C 8,9 C 96 % 1011,0 hPa 0,0 l/m 0 min 0 min 0,0 UV-I 21 W/m 0,0 km/h (0 Bft)
01.05.2014 06:57 9,9 C 8,9 C 96 % 1011,1 hPa 0,0 l/m 0 min 0 min 0,0 UV-I 21 W/m 0,0 km/h (0 Bft)
01.05.2014 07:00 9,9 C 9,4 C 96 % 1011,1 hPa 0,0 l/m 0 min 0 min 0,0 UV-I 23 W/m 0,0 km/h (0 Bft)
01.05.2014 07:02 9,9 C 9,4 C 96 % 1011,0 hPa 0,0 l/m 0 min 0 min 0,0 UV-I 26 W/m 0,0 km/h (0 Bft)
01.05.2014 07:06 9,9 C 9,4 C 96 % 1011,1 hPa 0,0 l/m 0 min 0 min 0,0 UV-I 30 W/m 0,0 km/h (0 Bft)
01.05.2014 07:08 9,9 C 9,4 C 96 % 1011,1 hPa 0,0 l/m 0 min 0 min 0,0 UV-I 39 W/m 0,0 km/h (0 Bft)
01.05.2014 07:10 10,0 C 9,4 C 96 % 1011,2 hPa 0,0 l/m 0 min 0 min 0,0 UV-I 39 W/m 0,0 km/h (0 Bft)
01.05.2014 07:12 10,0 C 9,4 C 96 % 1011,2 hPa 0,0 l/m 0 min 0 min 0,0 UV-I 40 W/m 0,0 km/h (0 Bft)
01.05.2014 07:14 10,1 C 9,4 C 96 % 1011,3 hPa 0,0 l/m 0 min 0 min 0,0 UV-I 37 W/m 0,0 km/h (0 Bft)
01.05.2014 07:16 10,1 C 9,4 C 96 % 1011,3 hPa 0,0 l/m 0 min 0 min 0,0 UV-I 39 W/m 0,0 km/h (0 Bft)
01.05.2014 07:18 10,1 C 9,4 C 96 % 1011,3 hPa 0,0 l/m 0 min 0 min 0,0 UV-I 46 W/m 0,0 km/h (0 Bft)
01.05.2014 07:20 10,2 C 9,4 C 96 % 1011,3 hPa 0,0 l/m 0 min 0 min 0,0 UV-I 44 W/m 0,0 km/h (0 Bft)
01.05.2014 07:22 10,2 C 9,4 C 96 % 1011,3 hPa 0,0 l/m 0 min 0 min 0,0 UV-I 46 W/m 0,0 km/h (0 Bft)
01.05.2014 07:24 10,2 C 9,4 C 96 % 1011,4 hPa 0,0 l/m 0 min 0 min 0,0 UV-I 49 W/m 2,6 km/h (1 Bft)
01.05.2014 07:26 10,2 C 9,4 C 96 % 1011,4 hPa 0,0 l/m 0 min 0 min 0,0 UV-I 54 W/m 0,0 km/h (0 Bft)
01.05.2014 07:28 10,2 C 9,4 C 96 % 1011,4 hPa 0,0 l/m 0 min 0 min 0,0 UV-I 56 W/m 0,0 km/h (0 Bft)
01.05.2014 07:30 10,2 C 9,4 C 96 % 1011,4 hPa 0,0 l/m 0 min 0 min 0,0 UV-I 62 W/m 10,3 km/h (2 Bft)
01.05.2014 07:32 10,1 C 9,4 C 96 % 1011,4 hPa 0,0 l/m 0 min 0 min 0,0 UV-I 65 W/m 0,0 km/h (0 Bft)
01.05.2014 07:34 10,2 C 9,4 C 96 % 1011,3 hPa 0,0 l/m 0 min 0 min 0,0 UV-I 69 W/m 0,0 km/h (0 Bft)
01.05.2014 07:36 10,2 C 10,0 C 96 % 1011,3 hPa 0,0 l/m 0 min 0 min 0,0 UV-I 63 W/m 0,0 km/h (0 Bft)
01.05.2014 07:38 10,3 C 10,0 C 96 % 1011,4 hPa 0,0 l/m 0 min 0 min 0,0 UV-I 58 W/m 0,0 km/h (0 Bft)
01.05.2014 07:40 10,3 C 10,0 C 96 % 1011,5 hPa 0,0 l/m 0 min 0 min 0,0 UV-I 54 W/m 2,6 km/h (1 Bft)
01.05.2014 07:42 10,3 C 10,0 C 96 % 1011,4 hPa 0,0 l/m 0 min 0 min 0,0 UV-I 65 W/m 0,0 km/h (0 Bft)
01.05.2014 07:43 10,3 C 10,0 C 95 % 1011,4 hPa 0,0 l/m 0 min 0 min 0,0 UV-I 70 W/m 0,0 km/h (0 Bft)
01.05.2014 07:46 10,4 C 10,0 C 95 % 1011,4 hPa 0,0 l/m 0 min 0 min 0,0 UV-I 74 W/m 0,0 km/h (0 Bft)
01.05.2014 07:48 10,4 C 10,0 C 95 % 1011,3 hPa 0,0 l/m 0 min 0 min 0,0 UV-I 84 W/m 7,7 km/h (2 Bft)
01.05.2014 07:50 10,3 C 10,0 C 95 % 1011,3 hPa 0,0 l/m 0 min 0 min 0,0 UV-I 97 W/m 5,1 km/h (1 Bft)
01.05.2014 07:52 10,3 C 10,0 C 95 % 1011,4 hPa 0,0 l/m 0 min 0 min 0,0 UV-I 81 W/m 2,6 km/h (1 Bft)
01.05.2014 07:54 10,3 C 10,0 C 95 % 1011,4 hPa 0,0 l/m 0 min 0 min 0,0 UV-I 91 W/m 10,3 km/h (2 Bft)
01.05.2014 07:56 10,3 C 10,0 C 95 % 1011,4 hPa 0,0 l/m 0 min 0 min 0,0 UV-I 79 W/m 0,0 km/h (0 Bft)
01.05.2014 07:58 10,3 C 10,0 C 95 % 1011,4 hPa 0,0 l/m 0 min 0 min 0,0 UV-I 114 W/m 0,0 km/h (0 Bft)
01.05.2014 08:00 10,4 C 10,0 C 95 % 1011,4 hPa 0,0 l/m 0 min 0 min 0,0 UV-I 125 W/m 0,0 km/h (0 Bft)
01.05.2014 08:02 10,4 C 10,6 C 95 % 1011,4 hPa 0,0 l/m 0 min 0 min 0,0 UV-I 109 W/m 0,0 km/h (0 Bft)
01.05.2014 08:06 10,6 C 10,6 C 94 % 1011,4 hPa 0,0 l/m 0 min 0 min 0,0 UV-I 135 W/m 0,0 km/h (0 Bft)
01.05.2014 08:08 10,6 C 10,6 C 94 % 1011,4 hPa 0,0 l/m 0 min 0 min 0,0 UV-I 118 W/m 0,0 km/h (0 Bft)
01.05.2014 08:10 10,6 C 10,6 C 94 % 1011,3 hPa 0,0 l/m 0 min 0 min 0,0 UV-I 76 W/m 0,0 km/h (0 Bft)
01.05.2014 08:12 10,6 C 10,6 C 94 % 1011,4 hPa 0,0 l/m 0 min 0 min 0,0 UV-I 81 W/m 2,6 km/h (1 Bft)
01.05.2014 08:14 10,7 C 10,6 C 94 % 1011,4 hPa 0,0 l/m 0 min 0 min 0,0 UV-I 105 W/m 0,0 km/h (0 Bft)
01.05.2014 08:16 10,7 C 10,6 C 94 % 1011,4 hPa 0,0 l/m 0 min 0 min 0,0 UV-I 109 W/m 0,0 km/h (0 Bft)
01.05.2014 08:18 10,7 C 10,6 C 94 % 1011,4 hPa 0,0 l/m 0 min 0 min 0,0 UV-I 100 W/m 0,0 km/h (0 Bft)
01.05.2014 08:20 10,7 C 10,6 C 94 % 1011,4 hPa 0,0 l/m 0 min 0 min 0,0 UV-I 100 W/m 0,0 km/h (0 Bft)
01.05.2014 08:22 10,7 C 10,6 C 93 % 1011,4 hPa 0,0 l/m 0 min 0 min 0,0 UV-I 132 W/m 2,6 km/h (1 Bft)
01.05.2014 08:24 10,7 C 10,6 C 93 % 1011,4 hPa 0,0 l/m 0 min 0 min 0,0 UV-I 130 W/m 0,0 km/h (0 Bft)
01.05.2014 08:26 10,7 C 10,6 C 93 % 1011,4 hPa 0,0 l/m 0 min 0 min 0,0 UV-I 137 W/m 0,0 km/h (0 Bft)
01.05.2014 08:28 10,8 C 10,6 C 93 % 1011,4 hPa 0,0 l/m 0 min 0 min 0,0 UV-I 149 W/m 2,6 km/h (1 Bft)
01.05.2014 08:30 10,8 C 10,6 C 93 % 1011,4 hPa 0,0 l/m 0 min 0 min 0,0 UV-I 139 W/m 0,0 km/h (0 Bft)
01.05.2014 08:32 10,8 C 10,6 C 93 % 1011,4 hPa 0,0 l/m 0 min 0 min 0,0 UV-I 134 W/m 0,0 km/h (0 Bft)
01.05.2014 08:34 10,8 C 10,6 C 93 % 1011,4 hPa 0,0 l/m 0 min 0 min 0,0 UV-I 153 W/m 0,0 km/h (0 Bft)
01.05.2014 08:36 10,8 C 10,6 C 93 % 1011,4 hPa 0,0 l/m 0 min 0 min 0,0 UV-I 155 W/m 0,0 km/h (0 Bft)
01.05.2014 08:38 10,8 C 10,6 C 93 % 1011,4 hPa 0,0 l/m 0 min 0 min 0,0 UV-I 183 W/m 0,0 km/h (0 Bft)
01.05.2014 08:40 10,9 C 11,1 C 93 % 1011,3 hPa 0,0 l/m 2 min 0 min 0,0 UV-I 216 W/m 0,0 km/h (0 Bft)
01.05.2014 08:42 11,0 C 11,1 C 93 % 1011,4 hPa 0,0 l/m 0 min 0 min 0,0 UV-I 202 W/m 0,0 km/h (0 Bft)
01.05.2014 08:44 11,0 C 11,1 C 93 % 1011,4 hPa 0,0 l/m 0 min 0 min 0,0 UV-I 195 W/m 7,7 km/h (2 Bft)
01.05.2014 08:46 11,1 C 11,1 C 92 % 1011,4 hPa 0,0 l/m 2 min 0 min 0,0 UV-I 262 W/m 0,0 km/h (0 Bft)
01.05.2014 08:48 11,1 C 11,1 C 92 % 1011,3 hPa 0,0 l/m 0 min 0 min 0,0 UV-I 218 W/m 5,1 km/h (1 Bft)
01.05.2014 08:50 11,2 C 11,1 C 92 % 1011,4 hPa 0,0 l/m 0 min 0 min 0,0 UV-I 216 W/m 5,1 km/h (1 Bft)
01.05.2014 08:52 11,2 C 11,1 C 92 % 1011,4 hPa 0,0 l/m 0 min 0 min 0,0 UV-I 192 W/m 5,1 km/h (1 Bft)
01.05.2014 08:54 11,1 C 11,1 C 91 % 1011,4 hPa 0,0 l/m 0 min 0 min 0,0 UV-I 186 W/m 7,7 km/h (2 Bft)
01.05.2014 08:56 11,1 C 11,1 C 91 % 1011,4 hPa 0,0 l/m 0 min 0 min 0,0 UV-I 202 W/m 0,0 km/h (0 Bft)
01.05.2014 08:58 11,0 C 11,1 C 91 % 1011,4 hPa 0,0 l/m 2 min 0 min 0,0 UV-I 248 W/m 0,0 km/h (0 Bft)
01.05.2014 09:00 11,0 C 11,1 C 91 % 1011,4 hPa 0,0 l/m 2 min 0 min 0,0 UV-I 352 W/m 0,0 km/h (0 Bft)
01.05.2014 09:02 11,1 C 11,1 C 91 % 1011,4 hPa 0,0 l/m 2 min 0 min 0,0 UV-I 355 W/m 0,0 km/h (0 Bft)
01.05.2014 09:06 11,3 C 11,1 C 92 % 1011,4 hPa 0,0 l/m 0 min 0 min 0,0 UV-I 211 W/m 2,6 km/h (1 Bft)
01.05.2014 09:08 11,4 C 11,1 C 91 % 1011,4 hPa 0,0 l/m 0 min 0 min 0,0 UV-I 236 W/m 0,0 km/h (0 Bft)
01.05.2014 09:10 11,5 C 11,1 C 91 % 1011,4 hPa 0,0 l/m 0 min 0 min 0,0 UV-I 223 W/m 0,0 km/h (0 Bft)
01.05.2014 09:12 11,4 C 11,1 C 91 % 1011,4 hPa 0,0 l/m 2 min 0 min 0,0 UV-I 355 W/m 0,0 km/h (0 Bft)
01.05.2014 09:14 11,4 C 11,1 C 90 % 1011,4 hPa 0,0 l/m 2 min 0 min 0,0 UV-I 357 W/m 0,0 km/h (0 Bft)
01.05.2014 09:16 11,5 C 11,1 C 90 % 1011,3 hPa 0,0 l/m 2 min 0 min 0,0 UV-I 364 W/m 0,0 km/h (0 Bft)
01.05.2014 09:18 11,4 C 11,1 C 90 % 1011,4 hPa 0,0 l/m 2 min 0 min 0,0 UV-I 364 W/m 0,0 km/h (0 Bft)
01.05.2014 09:20 11,6 C 11,7 C 91 % 1011,4 hPa 0,0 l/m 2 min 0 min 0,0 UV-I 373 W/m 2,6 km/h (1 Bft)
01.05.2014 09:22 11,6 C 11,1 C 90 % 1011,4 hPa 0,0 l/m 2 min 0 min 0,0 UV-I 322 W/m 0,0 km/h (0 Bft)
01.05.2014 09:24 11,7 C 11,1 C 90 % 1011,4 hPa 0,0 l/m 2 min 0 min 0,0 UV-I 272 W/m 0,0 km/h (0 Bft)
01.05.2014 09:26 11,8 C 11,1 C 90 % 1011,4 hPa 0,0 l/m 0 min 0 min 0,0 UV-I 255 W/m 0,0 km/h (0 Bft)
01.05.2014 09:28 11,8 C 11,7 C 90 % 1011,4 hPa 0,0 l/m 2 min 0 min 0,5 UV-I 376 W/m 0,0 km/h (0 Bft)
01.05.2014 09:30 11,9 C 12,2 C 90 % 1011,3 hPa 0,0 l/m 2 min 0 min 0,5 UV-I 385 W/m 0,0 km/h (0 Bft)
01.05.2014 09:32 11,9 C 12,2 C 90 % 1011,4 hPa 0,0 l/m 2 min 0 min 0,5 UV-I 362 W/m 7,7 km/h (2 Bft)
01.05.2014 09:34 12,0 C 12,2 C 89 % 1011,4 hPa 0,0 l/m 2 min 0 min 0,5 UV-I 336 W/m 5,1 km/h (1 Bft)
01.05.2014 09:36 12,2 C 12,8 C 89 % 1011,4 hPa 0,0 l/m 2 min 0 min 0,6 UV-I 359 W/m 2,6 km/h (1 Bft)
01.05.2014 09:38 12,2 C 12,8 C 89 % 1011,4 hPa 0,0 l/m 2 min 0 min 0,6 UV-I 318 W/m 2,6 km/h (1 Bft)
01.05.2014 09:40 12,2 C 13,3 C 88 % 1011,4 hPa 0,0 l/m 2 min 0 min 0,7 UV-I 425 W/m 2,6 km/h (1 Bft)
01.05.2014 09:42 12,2 C 13,9 C 88 % 1011,4 hPa 0,0 l/m 2 min 0 min 0,7 UV-I 432 W/m 0,0 km/h (0 Bft)
01.05.2014 09:44 12,4 C 15,6 C 89 % 1011,4 hPa 0,0 l/m 2 min 0 min 0,8 UV-I 434 W/m 0,0 km/h (0 Bft)
01.05.2014 09:46 12,4 C 15,6 C 88 % 1011,4 hPa 0,0 l/m 2 min 0 min 0,8 UV-I 424 W/m 0,0 km/h (0 Bft)
01.05.2014 09:48 12,4 C 15,0 C 88 % 1011,4 hPa 0,0 l/m 2 min 0 min 0,9 UV-I 445 W/m 0,0 km/h (0 Bft)
01.05.2014 09:50 12,4 C 16,1 C 88 % 1011,4 hPa 0,0 l/m 2 min 0 min 0,9 UV-I 454 W/m 0,0 km/h (0 Bft)
01.05.2014 09:52 12,5 C 16,1 C 88 % 1011,4 hPa 0,0 l/m 2 min 0 min 0,9 UV-I 438 W/m 0,0 km/h (0 Bft)
01.05.2014 09:54 12,6 C 16,1 C 88 % 1011,4 hPa 0,0 l/m 2 min 0 min 1,0 UV-I 459 W/m 0,0 km/h (0 Bft)
01.05.2014 09:56 12,8 C 15,6 C 88 % 1011,4 hPa 0,0 l/m 2 min 0 min 1,0 UV-I 425 W/m 0,0 km/h (0 Bft)
01.05.2014 09:58 12,9 C 15,6 C 87 % 1011,4 hPa 0,0 l/m 2 min 0 min 0,9 UV-I 422 W/m 0,0 km/h (0 Bft)
01.05.2014 10:00 13,1 C 15,0 C 86 % 1011,4 hPa 0,0 l/m 2 min 0 min 0,8 UV-I 327 W/m 10,3 km/h (2 Bft)
01.05.2014 10:02 13,1 C 15,0 C 85 % 1011,4 hPa 0,0 l/m 2 min 0 min 1,0 UV-I 445 W/m 7,7 km/h (2 Bft)
01.05.2014 10:06 13,1 C 15,0 C 85 % 1011,3 hPa 0,0 l/m 2 min 0 min 1,2 UV-I 490 W/m 10,3 km/h (2 Bft)
01.05.2014 10:08 13,1 C 15,0 C 85 % 1011,3 hPa 0,0 l/m 2 min 0 min 1,2 UV-I 496 W/m 2,6 km/h (1 Bft)
01.05.2014 10:10 13,2 C 15,0 C 85 % 1011,3 hPa 0,0 l/m 2 min 0 min 1,3 UV-I 499 W/m 0,0 km/h (0 Bft)
01.05.2014 10:12 13,6 C 15,6 C 86 % 1011,3 hPa 0,0 l/m 2 min 0 min 1,3 UV-I 504 W/m 0,0 km/h (0 Bft)
01.05.2014 10:14 13,7 C 15,6 C 85 % 1011,4 hPa 0,0 l/m 2 min 0 min 1,3 UV-I 476 W/m 0,0 km/h (0 Bft)
01.05.2014 10:16 13,7 C 15,6 C 83 % 1011,4 hPa 0,0 l/m 2 min 0 min 1,4 UV-I 534 W/m 2,6 km/h (1 Bft)
01.05.2014 10:18 13,7 C 15,6 C 83 % 1011,3 hPa 0,0 l/m 2 min 0 min 1,4 UV-I 480 W/m 7,7 km/h (2 Bft)
01.05.2014 10:20 13,7 C 16,1 C 84 % 1011,3 hPa 0,0 l/m 2 min 0 min 1,4 UV-I 503 W/m 0,0 km/h (0 Bft)
01.05.2014 10:22 13,7 C 15,6 C 84 % 1011,4 hPa 0,0 l/m 2 min 0 min 1,5 UV-I 519 W/m 7,7 km/h (2 Bft)
01.05.2014 10:24 13,8 C 15,0 C 83 % 1011,3 hPa 0,0 l/m 2 min 0 min 1,5 UV-I 541 W/m 0,0 km/h (0 Bft)
01.05.2014 10:26 14,0 C 15,0 C 83 % 1011,4 hPa 0,0 l/m 2 min 0 min 1,6 UV-I 536 W/m 0,0 km/h (0 Bft)
01.05.2014 10:28 14,1 C 15,0 C 82 % 1011,3 hPa 0,0 l/m 2 min 0 min 1,6 UV-I 543 W/m 7,7 km/h (2 Bft)
01.05.2014 10:30 14,2 C 14,4 C 82 % 1011,4 hPa 0,0 l/m 2 min 0 min 1,7 UV-I 563 W/m 2,6 km/h (1 Bft)
01.05.2014 10:32 14,4 C 15,0 C 81 % 1011,4 hPa 0,0 l/m 2 min 0 min 1,7 UV-I 563 W/m 5,1 km/h (1 Bft)
01.05.2014 10:34 14,5 C 15,0 C 80 % 1011,3 hPa 0,0 l/m 2 min 0 min 1,7 UV-I 568 W/m 5,1 km/h (1 Bft)
01.05.2014 10:36 14,7 C 15,0 C 81 % 1011,3 hPa 0,0 l/m 2 min 0 min 1,7 UV-I 566 W/m 2,6 km/h (1 Bft)
01.05.2014 10:38 14,8 C 15,0 C 80 % 1011,3 hPa 0,0 l/m 2 min 0 min 1,7 UV-I 515 W/m 2,6 km/h (1 Bft)
01.05.2014 10:40 14,9 C 15,0 C 80 % 1011,3 hPa 0,0 l/m 2 min 0 min 1,6 UV-I 438 W/m 10,3 km/h (2 Bft)
01.05.2014 10:42 14,9 C 16,1 C 79 % 1011,4 hPa 0,0 l/m 2 min 0 min 1,9 UV-I 573 W/m 7,7 km/h (2 Bft)
01.05.2014 10:44 15,0 C 16,7 C 80 % 1011,4 hPa 0,0 l/m 2 min 0 min 1,9 UV-I 598 W/m 2,6 km/h (1 Bft)
01.05.2014 10:46 14,9 C 16,7 C 79 % 1011,4 hPa 0,0 l/m 2 min 0 min 2,0 UV-I 601 W/m 0,0 km/h (0 Bft)
01.05.2014 10:48 14,9 C 16,7 C 78 % 1011,4 hPa 0,0 l/m 2 min 0 min 2,0 UV-I 594 W/m 2,6 km/h (1 Bft)
01.05.2014 10:50 14,9 C 16,7 C 78 % 1011,4 hPa 0,0 l/m 2 min 0 min 2,0 UV-I 603 W/m 2,6 km/h (1 Bft)
01.05.2014 10:52 14,8 C 16,1 C 79 % 1011,4 hPa 0,0 l/m 2 min 0 min 2,1 UV-I 608 W/m 0,0 km/h (0 Bft)
01.05.2014 10:54 14,8 C 16,1 C 80 % 1011,3 hPa 0,0 l/m 2 min 0 min 2,1 UV-I 584 W/m 0,0 km/h (0 Bft)
01.05.2014 10:56 14,9 C 15,6 C 80 % 1011,3 hPa 0,0 l/m 2 min 0 min 2,1 UV-I 603 W/m 0,0 km/h (0 Bft)
01.05.2014 10:58 15,0 C 16,1 C 80 % 1011,4 hPa 0,0 l/m 2 min 0 min 2,1 UV-I 582 W/m 0,0 km/h (0 Bft)
01.05.2014 11:00 15,0 C 16,7 C 80 % 1011,4 hPa 0,0 l/m 2 min 0 min 2,1 UV-I 606 W/m 0,0 km/h (0 Bft)
01.05.2014 11:02 15,0 C 16,7 C 80 % 1011,4 hPa 0,0 l/m 2 min 0 min 2,3 UV-I 650 W/m 0,0 km/h (0 Bft)
01.05.2014 11:06 15,0 C 16,7 C 81 % 1011,4 hPa 0,0 l/m 2 min 0 min 2,3 UV-I 638 W/m 0,0 km/h (0 Bft)
01.05.2014 11:08 15,0 C 16,1 C 80 % 1011,4 hPa 0,0 l/m 2 min 0 min 2,4 UV-I 657 W/m 2,6 km/h (1 Bft)
01.05.2014 11:10 15,2 C 16,1 C 79 % 1011,4 hPa 0,0 l/m 2 min 0 min 2,4 UV-I 647 W/m 2,6 km/h (1 Bft)
01.05.2014 11:12 15,2 C 15,6 C 80 % 1011,4 hPa 0,0 l/m 2 min 0 min 2,4 UV-I 671 W/m 10,3 km/h (2 Bft)
01.05.2014 11:14 15,1 C 15,6 C 80 % 1011,4 hPa 0,0 l/m 2 min 0 min 2,4 UV-I 647 W/m 2,6 km/h (1 Bft)
01.05.2014 11:16 15,3 C 16,1 C 80 % 1011,5 hPa 0,0 l/m 2 min 0 min 2,3 UV-I 587 W/m 5,1 km/h (1 Bft)
01.05.2014 11:18 15,4 C 15,6 C 78 % 1011,5 hPa 0,0 l/m 2 min 0 min 2,2 UV-I 615 W/m 12,9 km/h (3 Bft)
01.05.2014 11:20 15,4 C 15,6 C 78 % 1011,5 hPa 0,0 l/m 2 min 0 min 2,5 UV-I 645 W/m 7,7 km/h (2 Bft)
01.05.2014 11:22 15,7 C 16,1 C 80 % 1011,4 hPa 0,0 l/m 2 min 0 min 2,5 UV-I 650 W/m 2,6 km/h (1 Bft)
01.05.2014 11:24 15,6 C 16,1 C 77 % 1011,4 hPa 0,0 l/m 2 min 0 min 2,5 UV-I 663 W/m 0,0 km/h (0 Bft)
01.05.2014 11:26 15,9 C 16,7 C 79 % 1011,4 hPa 0,0 l/m 2 min 0 min 2,6 UV-I 666 W/m 0,0 km/h (0 Bft)
01.05.2014 11:28 16,1 C 17,2 C 78 % 1011,4 hPa 0,0 l/m 2 min 0 min 2,6 UV-I 700 W/m 0,0 km/h (0 Bft)
01.05.2014 11:30 15,9 C 16,7 C 76 % 1011,4 hPa 0,0 l/m 2 min 0 min 2,6 UV-I 668 W/m 10,3 km/h (2 Bft)
01.05.2014 11:32 15,8 C 16,7 C 76 % 1011,5 hPa 0,0 l/m 2 min 0 min 2,8 UV-I 737 W/m 12,9 km/h (3 Bft)
01.05.2014 11:34 15,7 C 17,2 C 77 % 1011,5 hPa 0,0 l/m 2 min 0 min 2,3 UV-I 626 W/m 10,3 km/h (2 Bft)
01.05.2014 11:36 15,6 C 16,7 C 77 % 1011,5 hPa 0,0 l/m 0 min 0 min 2,7 UV-I 334 W/m 7,7 km/h (2 Bft)
01.05.2014 11:38 15,9 C 16,7 C 79 % 1011,4 hPa 0,0 l/m 2 min 0 min 1,7 UV-I 663 W/m 2,6 km/h (1 Bft)
01.05.2014 11:40 16,1 C 16,7 C 78 % 1011,4 hPa 0,0 l/m 0 min 0 min 1,5 UV-I 250 W/m 5,1 km/h (1 Bft)
01.05.2014 11:42 16,1 C 16,7 C 77 % 1011,4 hPa 0,0 l/m 2 min 0 min 2,4 UV-I 613 W/m 0,0 km/h (0 Bft)
01.05.2014 11:44 16,3 C 16,7 C 78 % 1011,5 hPa 0,0 l/m 2 min 0 min 2,2 UV-I 519 W/m 10,3 km/h (2 Bft)
01.05.2014 11:46 16,4 C 17,2 C 77 % 1011,4 hPa 0,0 l/m 2 min 0 min 2,4 UV-I 582 W/m 7,7 km/h (2 Bft)
01.05.2014 11:48 16,3 C 17,2 C 75 % 1011,4 hPa 0,0 l/m 2 min 0 min 2,2 UV-I 425 W/m 2,6 km/h (1 Bft)
01.05.2014 11:50 16,2 C 17,2 C 74 % 1011,4 hPa 0,0 l/m 2 min 0 min 2,5 UV-I 545 W/m 0,0 km/h (0 Bft)
01.05.2014 11:52 16,2 C 17,2 C 77 % 1011,5 hPa 0,0 l/m 2 min 0 min 2,3 UV-I 538 W/m 2,6 km/h (1 Bft)
01.05.2014 11:54 16,6 C 17,8 C 78 % 1011,5 hPa 0,0 l/m 2 min 0 min 2,1 UV-I 459 W/m 10,3 km/h (2 Bft)
01.05.2014 11:56 16,4 C 17,2 C 76 % 1011,4 hPa 0,0 l/m 2 min 0 min 2,2 UV-I 499 W/m 15,4 km/h (3 Bft)
01.05.2014 11:58 16,4 C 17,2 C 76 % 1011,4 hPa 0,0 l/m 2 min 0 min 2,0 UV-I 499 W/m 7,7 km/h (2 Bft)
01.05.2014 12:00 16,4 C 17,2 C 75 % 1011,4 hPa 0,0 l/m 2 min 0 min 2,6 UV-I 457 W/m 0,0 km/h (0 Bft)
01.05.2014 12:02 16,7 C 18,3 C 77 % 1011,4 hPa 0,0 l/m 2 min 0 min 2,8 UV-I 724 W/m 0,0 km/h (0 Bft)
01.05.2014 12:06 17,5 C 18,9 C 75 % 1011,4 hPa 0,0 l/m 2 min 0 min 2,6 UV-I 603 W/m 2,6 km/h (1 Bft)
01.05.2014 12:08 17,3 C 18,3 C 72 % 1011,3 hPa 0,0 l/m 2 min 0 min 2,6 UV-I 585 W/m 15,4 km/h (3 Bft)
01.05.2014 12:10 17,1 C 18,3 C 74 % 1011,3 hPa 0,0 l/m 2 min 0 min 2,2 UV-I 601 W/m 2,6 km/h (1 Bft)
01.05.2014 12:12 17,1 C 18,3 C 75 % 1011,2 hPa 0,0 l/m 0 min 0 min 2,2 UV-I 408 W/m 2,6 km/h (1 Bft)
01.05.2014 12:14 16,8 C 17,8 C 72 % 1011,3 hPa 0,0 l/m 2 min 0 min 2,2 UV-I 478 W/m 10,3 km/h (2 Bft)
01.05.2014 12:16 16,6 C 17,2 C 72 % 1011,2 hPa 0,0 l/m 2 min 0 min 2,2 UV-I 466 W/m 2,6 km/h (1 Bft)
01.05.2014 12:18 16,4 C 17,2 C 75 % 1011,2 hPa 0,0 l/m 0 min 0 min 1,9 UV-I 345 W/m 0,0 km/h (0 Bft)
01.05.2014 12:20 16,3 C 16,7 C 73 % 1011,2 hPa 0,0 l/m 0 min 0 min 2,5 UV-I 360 W/m 12,9 km/h (3 Bft)
01.05.2014 12:22 16,2 C 17,2 C 75 % 1011,2 hPa 0,0 l/m 0 min 0 min 2,2 UV-I 360 W/m 2,6 km/h (1 Bft)
01.05.2014 12:24 16,4 C 17,8 C 75 % 1011,1 hPa 0,0 l/m 2 min 0 min 2,8 UV-I 596 W/m 0,0 km/h (0 Bft)
01.05.2014 12:26 16,5 C 17,8 C 75 % 1011,1 hPa 0,0 l/m 2 min 0 min 2,8 UV-I 619 W/m 10,3 km/h (2 Bft)
01.05.2014 12:28 16,9 C 18,3 C 76 % 1011,1 hPa 0,0 l/m 2 min 0 min 3,0 UV-I 666 W/m 2,6 km/h (1 Bft)
01.05.2014 12:30 17,2 C 18,9 C 74 % 1011,1 hPa 0,0 l/m 2 min 0 min 3,2 UV-I 721 W/m 10,3 km/h (2 Bft)
01.05.2014 12:32 17,3 C 19,4 C 74 % 1011,0 hPa 0,0 l/m 2 min 0 min 3,3 UV-I 786 W/m 0,0 km/h (0 Bft)
01.05.2014 12:34 17,6 C 20,0 C 72 % 1011,0 hPa 0,0 l/m 2 min 0 min 3,1 UV-I 689 W/m 2,6 km/h (1 Bft)
01.05.2014 12:36 17,9 C 20,0 C 73 % 1011,0 hPa 0,0 l/m 2 min 0 min 3,0 UV-I 638 W/m 10,3 km/h (2 Bft)
01.05.2014 12:38 18,1 C 20,0 C 70 % 1011,0 hPa 0,0 l/m 2 min 0 min 3,1 UV-I 752 W/m 0,0 km/h (0 Bft)
01.05.2014 12:40 18,1 C 20,0 C 72 % 1011,0 hPa 0,0 l/m 2 min 0 min 2,9 UV-I 587 W/m 2,6 km/h (1 Bft)
01.05.2014 12:42 18,0 C 20,0 C 71 % 1011,0 hPa 0,0 l/m 2 min 0 min 2,6 UV-I 570 W/m 10,3 km/h (2 Bft)
01.05.2014 12:44 17,7 C 19,4 C 69 % 1011,0 hPa 0,0 l/m 2 min 0 min 2,8 UV-I 668 W/m 10,3 km/h (2 Bft)
01.05.2014 12:46 17,8 C 19,4 C 72 % 1010,9 hPa 0,0 l/m 2 min 0 min 2,7 UV-I 591 W/m 2,6 km/h (1 Bft)
01.05.2014 12:48 17,8 C 18,9 C 69 % 1010,9 hPa 0,0 l/m 0 min 0 min 2,4 UV-I 350 W/m 12,9 km/h (3 Bft)
01.05.2014 12:50 17,6 C 18,3 C 69 % 1010,9 hPa 0,0 l/m 2 min 0 min 2,2 UV-I 621 W/m 12,9 km/h (3 Bft)
01.05.2014 12:52 17,2 C 18,3 C 71 % 1010,9 hPa 0,0 l/m 2 min 0 min 2,3 UV-I 464 W/m 15,4 km/h (3 Bft)
01.05.2014 12:54 17,2 C 17,8 C 70 % 1010,9 hPa 0,0 l/m 0 min 0 min 2,0 UV-I 339 W/m 12,9 km/h (3 Bft)
01.05.2014 12:56 17,2 C 17,8 C 72 % 1010,9 hPa 0,0 l/m 0 min 0 min 1,9 UV-I 308 W/m 2,6 km/h (1 Bft)
01.05.2014 12:58 17,3 C 17,8 C 72 % 1010,9 hPa 0,0 l/m 0 min 0 min 2,2 UV-I 308 W/m 7,7 km/h (2 Bft)
01.05.2014 13:00 17,3 C 17,8 C 69 % 1010,9 hPa 0,0 l/m 2 min 0 min 2,2 UV-I 737 W/m 10,3 km/h (2 Bft)
01.05.2014 13:02 17,4 C 18,3 C 70 % 1010,8 hPa 0,0 l/m 2 min 0 min 2,2 UV-I 742 W/m 7,7 km/h (2 Bft)
01.05.2014 13:06 17,4 C 18,3 C 69 % 1010,8 hPa 0,0 l/m 0 min 0 min 2,1 UV-I 345 W/m 7,7 km/h (2 Bft)
01.05.2014 13:08 17,5 C 18,3 C 68 % 1010,7 hPa 0,0 l/m 2 min 0 min 2,1 UV-I 782 W/m 2,6 km/h (1 Bft)
01.05.2014 13:10 17,4 C 18,3 C 67 % 1010,7 hPa 0,0 l/m 2 min 0 min 2,1 UV-I 789 W/m 2,6 km/h (1 Bft)
01.05.2014 13:12 17,5 C 18,3 C 71 % 1010,7 hPa 0,0 l/m 2 min 0 min 1,9 UV-I 744 W/m 0,0 km/h (0 Bft)
01.05.2014 13:14 17,4 C 18,3 C 67 % 1010,7 hPa 0,0 l/m 2 min 0 min 1,8 UV-I 744 W/m 2,6 km/h (1 Bft)
01.05.2014 13:16 17,5 C 18,3 C 69 % 1010,7 hPa 0,0 l/m 0 min 0 min 1,8 UV-I 380 W/m 0,0 km/h (0 Bft)
01.05.2014 13:18 17,8 C 18,3 C 71 % 1010,7 hPa 0,0 l/m 0 min 0 min 1,5 UV-I 345 W/m 2,6 km/h (1 Bft)
01.05.2014 13:20 17,9 C 18,3 C 70 % 1010,7 hPa 0,0 l/m 0 min 0 min 1,3 UV-I 283 W/m 2,6 km/h (1 Bft)
01.05.2014 13:22 17,7 C 18,3 C 69 % 1010,7 hPa 0,0 l/m 0 min 0 min 1,1 UV-I 236 W/m 7,7 km/h (2 Bft)
01.05.2014 13:24 17,6 C 17,8 C 69 % 1010,7 hPa 0,0 l/m 0 min 0 min 1,0 UV-I 211 W/m 7,7 km/h (2 Bft)
01.05.2014 13:26 17,3 C 17,8 C 70 % 1010,7 hPa 0,0 l/m 0 min 0 min 0,9 UV-I 195 W/m 7,7 km/h (2 Bft)
01.05.2014 13:28 17,2 C 17,2 C 70 % 1010,7 hPa 0,0 l/m 0 min 0 min 0,8 UV-I 190 W/m 0,0 km/h (0 Bft)
01.05.2014 13:30 17,2 C 17,2 C 72 % 1010,7 hPa 0,0 l/m 0 min 0 min 0,9 UV-I 207 W/m 0,0 km/h (0 Bft)
01.05.2014 13:32 17,2 C 17,2 C 71 % 1010,6 hPa 0,0 l/m 0 min 0 min 1,1 UV-I 236 W/m 0,0 km/h (0 Bft)
01.05.2014 13:34 17,2 C 17,8 C 71 % 1010,6 hPa 0,0 l/m 0 min 0 min 1,3 UV-I 279 W/m 7,7 km/h (2 Bft)
01.05.2014 13:36 17,1 C 17,8 C 71 % 1010,6 hPa 0,0 l/m 0 min 0 min 1,3 UV-I 287 W/m 7,7 km/h (2 Bft)
01.05.2014 13:38 17,3 C 17,8 C 72 % 1010,6 hPa 0,0 l/m 0 min 0 min 1,3 UV-I 283 W/m 0,0 km/h (0 Bft)
01.05.2014 13:40 17,2 C 17,8 C 70 % 1010,6 hPa 0,0 l/m 0 min 0 min 1,3 UV-I 287 W/m 2,6 km/h (1 Bft)
01.05.2014 13:42 17,2 C 17,8 C 69 % 1010,6 hPa 0,0 l/m 0 min 0 min 1,3 UV-I 288 W/m 0,0 km/h (0 Bft)
01.05.2014 13:44 17,1 C 17,8 C 69 % 1010,5 hPa 0,0 l/m 0 min 0 min 1,4 UV-I 292 W/m 0,0 km/h (0 Bft)
01.05.2014 13:46 17,0 C 17,8 C 69 % 1010,5 hPa 0,0 l/m 0 min 0 min 1,5 UV-I 290 W/m 0,0 km/h (0 Bft)
01.05.2014 13:48 17,2 C 17,8 C 71 % 1010,5 hPa 0,0 l/m 0 min 0 min 1,7 UV-I 315 W/m 0,0 km/h (0 Bft)
01.05.2014 13:50 17,4 C 17,8 C 70 % 1010,5 hPa 0,0 l/m 0 min 0 min 3,0 UV-I 359 W/m 0,0 km/h (0 Bft)
01.05.2014 13:52 17,6 C 18,3 C 69 % 1010,5 hPa 0,0 l/m 2 min 0 min 3,3 UV-I 826 W/m 2,6 km/h (1 Bft)
01.05.2014 13:54 17,7 C 18,3 C 67 % 1010,3 hPa 0,0 l/m 2 min 0 min 3,3 UV-I 809 W/m 10,3 km/h (2 Bft)
01.05.2014 13:56 17,6 C 17,8 C 66 % 1010,4 hPa 0,0 l/m 2 min 0 min 3,4 UV-I 810 W/m 12,9 km/h (3 Bft)
01.05.2014 13:58 17,8 C 18,3 C 69 % 1010,4 hPa 0,0 l/m 2 min 0 min 3,2 UV-I 782 W/m 7,7 km/h (2 Bft)
01.05.2014 14:00 17,9 C 18,3 C 67 % 1010,3 hPa 0,0 l/m 2 min 0 min 3,0 UV-I 744 W/m 10,3 km/h (2 Bft)
01.05.2014 14:02 18,0 C 18,3 C 67 % 1010,3 hPa 0,0 l/m 2 min 0 min 2,0 UV-I 698 W/m 0,0 km/h (0 Bft)
01.05.2014 14:06 18,2 C 18,9 C 66 % 1010,4 hPa 0,0 l/m 2 min 0 min 2,0 UV-I 598 W/m 0,0 km/h (0 Bft)
01.05.2014 14:08 18,1 C 18,3 C 65 % 1010,4 hPa 0,0 l/m 0 min 0 min 1,6 UV-I 304 W/m 7,7 km/h (2 Bft)
01.05.2014 14:10 17,8 C 18,3 C 65 % 1010,4 hPa 0,0 l/m 0 min 0 min 1,7 UV-I 311 W/m 0,0 km/h (0 Bft)
01.05.2014 14:12 17,6 C 18,3 C 67 % 1010,3 hPa 0,0 l/m 0 min 0 min 1,7 UV-I 313 W/m 0,0 km/h (0 Bft)
01.05.2014 14:14 17,5 C 17,8 C 67 % 1010,3 hPa 0,0 l/m 0 min 0 min 1,7 UV-I 311 W/m 0,0 km/h (0 Bft)
01.05.2014 14:16 17,7 C 17,8 C 67 % 1010,3 hPa 0,0 l/m 0 min 0 min 2,0 UV-I 346 W/m 2,6 km/h (1 Bft)
01.05.2014 14:18 17,8 C 18,3 C 66 % 1010,3 hPa 0,0 l/m 0 min 0 min 3,0 UV-I 346 W/m 2,6 km/h (1 Bft)
01.05.2014 14:20 17,9 C 18,3 C 65 % 1010,3 hPa 0,0 l/m 2 min 0 min 3,0 UV-I 791 W/m 12,9 km/h (3 Bft)
01.05.2014 14:22 17,8 C 18,3 C 64 % 1010,2 hPa 0,0 l/m 2 min 0 min 3,1 UV-I 775 W/m 7,7 km/h (2 Bft)
01.05.2014 14:24 17,8 C 18,3 C 65 % 1010,3 hPa 0,0 l/m 2 min 0 min 2,2 UV-I 737 W/m 12,9 km/h (3 Bft)
01.05.2014 14:26 17,8 C 18,3 C 67 % 1010,3 hPa 0,0 l/m 0 min 0 min 2,2 UV-I 366 W/m 2,6 km/h (1 Bft)
01.05.2014 14:28 17,8 C 18,3 C 65 % 1010,2 hPa 0,0 l/m 0 min 0 min 1,8 UV-I 322 W/m 10,3 km/h (2 Bft)
01.05.2014 14:30 17,8 C 18,3 C 67 % 1010,2 hPa 0,0 l/m 0 min 0 min 2,0 UV-I 394 W/m 5,1 km/h (1 Bft)
01.05.2014 14:32 17,9 C 18,3 C 64 % 1010,2 hPa 0,0 l/m 2 min 0 min 2,4 UV-I 615 W/m 12,9 km/h (3 Bft)
01.05.2014 14:34 17,8 C 18,3 C 64 % 1010,2 hPa 0,0 l/m 0 min 0 min 1,8 UV-I 306 W/m 0,0 km/h (0 Bft)
01.05.2014 14:36 17,8 C 18,3 C 67 % 1010,2 hPa 0,0 l/m 0 min 0 min 1,6 UV-I 274 W/m 5,1 km/h (1 Bft)
01.05.2014 14:38 17,8 C 17,8 C 65 % 1010,2 hPa 0,0 l/m 0 min 0 min 1,6 UV-I 308 W/m 0,0 km/h (0 Bft)
01.05.2014 14:40 17,8 C 18,3 C 68 % 1010,2 hPa 0,0 l/m 0 min 0 min 2,7 UV-I 308 W/m 2,6 km/h (1 Bft)
01.05.2014 14:42 17,8 C 18,3 C 67 % 1010,2 hPa 0,0 l/m 0 min 0 min 3,0 UV-I 308 W/m 5,1 km/h (1 Bft)
01.05.2014 14:44 18,3 C 18,9 C 68 % 1010,2 hPa 0,0 l/m 2 min 0 min 3,1 UV-I 786 W/m 2,6 km/h (1 Bft)
01.05.2014 14:46 18,7 C 19,4 C 65 % 1010,1 hPa 0,0 l/m 2 min 0 min 3,1 UV-I 791 W/m 7,7 km/h (2 Bft)
01.05.2014 14:48 18,9 C 20,0 C 64 % 1010,1 hPa 0,0 l/m 2 min 0 min 3,1 UV-I 791 W/m 7,7 km/h (2 Bft)
01.05.2014 14:50 18,9 C 20,0 C 63 % 1010,1 hPa 0,0 l/m 2 min 0 min 3,0 UV-I 766 W/m 0,0 km/h (0 Bft)
01.05.2014 14:52 18,9 C 20,0 C 63 % 1010,1 hPa 0,0 l/m 2 min 0 min 3,0 UV-I 775 W/m 7,7 km/h (2 Bft)
01.05.2014 14:54 19,1 C 20,0 C 62 % 1010,0 hPa 0,0 l/m 2 min 0 min 2,9 UV-I 733 W/m 2,6 km/h (1 Bft)
01.05.2014 14:56 19,0 C 20,0 C 62 % 1010,0 hPa 0,0 l/m 2 min 0 min 2,7 UV-I 636 W/m 0,0 km/h (0 Bft)
01.05.2014 14:58 18,6 C 19,4 C 62 % 1010,0 hPa 0,0 l/m 2 min 0 min 2,9 UV-I 788 W/m 0,0 km/h (0 Bft)
01.05.2014 15:00 18,7 C 19,4 C 64 % 1010,0 hPa 0,0 l/m 2 min 0 min 2,1 UV-I 726 W/m 0,0 km/h (0 Bft)
01.05.2014 15:02 18,7 C 19,4 C 65 % 1010,0 hPa 0,0 l/m 0 min 0 min 2,0 UV-I 360 W/m 10,3 km/h (2 Bft)
01.05.2014 15:06 18,3 C 18,3 C 66 % 1009,9 hPa 0,0 l/m 0 min 0 min 1,8 UV-I 318 W/m 12,9 km/h (3 Bft)
01.05.2014 15:08 17,9 C 17,8 C 66 % 1009,9 hPa 0,0 l/m 0 min 0 min 1,8 UV-I 306 W/m 7,7 km/h (2 Bft)
01.05.2014 15:10 17,7 C 17,8 C 67 % 1009,9 hPa 0,0 l/m 0 min 0 min 1,8 UV-I 301 W/m 12,9 km/h (3 Bft)
01.05.2014 15:12 17,6 C 17,2 C 67 % 1009,9 hPa 0,0 l/m 0 min 0 min 1,9 UV-I 322 W/m 10,3 km/h (2 Bft)
01.05.2014 15:14 17,4 C 17,8 C 68 % 1009,9 hPa 0,0 l/m 0 min 0 min 2,5 UV-I 364 W/m 5,1 km/h (1 Bft)
01.05.2014 15:16 17,4 C 17,8 C 68 % 1009,8 hPa 0,0 l/m 2 min 0 min 2,5 UV-I 668 W/m 7,7 km/h (2 Bft)
01.05.2014 15:18 17,5 C 17,8 C 67 % 1009,8 hPa 0,0 l/m 2 min 0 min 1,6 UV-I 640 W/m 2,6 km/h (1 Bft)
01.05.2014 15:20 17,6 C 17,8 C 67 % 1009,7 hPa 0,0 l/m 0 min 0 min 2,4 UV-I 297 W/m 2,6 km/h (1 Bft)
01.05.2014 15:22 17,7 C 17,8 C 67 % 1009,7 hPa 0,0 l/m 2 min 0 min 2,5 UV-I 656 W/m 0,0 km/h (0 Bft)
01.05.2014 15:24 18,0 C 18,3 C 67 % 1009,6 hPa 0,0 l/m 2 min 0 min 2,6 UV-I 668 W/m 0,0 km/h (0 Bft)
01.05.2014 15:26 18,4 C 18,9 C 66 % 1009,6 hPa 0,0 l/m 2 min 0 min 2,6 UV-I 679 W/m 2,6 km/h (1 Bft)
01.05.2014 15:28 18,5 C 18,3 C 64 % 1009,6 hPa 0,0 l/m 2 min 0 min 2,6 UV-I 668 W/m 10,3 km/h (2 Bft)
01.05.2014 15:30 18,5 C 18,3 C 64 % 1009,6 hPa 0,0 l/m 2 min 0 min 2,6 UV-I 663 W/m 12,9 km/h (3 Bft)
01.05.2014 15:32 18,3 C 18,3 C 64 % 1009,5 hPa 0,0 l/m 2 min 0 min 2,6 UV-I 649 W/m 12,9 km/h (3 Bft)
01.05.2014 15:34 18,6 C 18,9 C 66 % 1009,5 hPa 0,0 l/m 2 min 0 min 2,6 UV-I 661 W/m 0,0 km/h (0 Bft)
01.05.2014 15:36 18,6 C 18,9 C 62 % 1009,5 hPa 0,0 l/m 2 min 0 min 2,6 UV-I 687 W/m 2,6 km/h (1 Bft)
01.05.2014 15:38 18,8 C 18,9 C 64 % 1009,5 hPa 0,0 l/m 2 min 0 min 2,6 UV-I 684 W/m 7,7 km/h (2 Bft)
01.05.2014 15:40 19,0 C 19,4 C 62 % 1009,4 hPa 0,0 l/m 2 min 0 min 2,5 UV-I 671 W/m 12,9 km/h (3 Bft)
01.05.2014 15:42 19,3 C 19,4 C 62 % 1009,5 hPa 0,0 l/m 2 min 0 min 2,5 UV-I 657 W/m 7,7 km/h (2 Bft)
01.05.2014 15:44 19,5 C 19,4 C 62 % 1009,5 hPa 0,0 l/m 2 min 0 min 2,5 UV-I 668 W/m 10,3 km/h (2 Bft)
01.05.2014 15:46 19,6 C 19,4 C 60 % 1009,5 hPa 0,0 l/m 2 min 0 min 2,5 UV-I 682 W/m 2,6 km/h (1 Bft)
01.05.2014 15:48 19,2 C 19,4 C 61 % 1009,4 hPa 0,0 l/m 2 min 0 min 2,5 UV-I 684 W/m 5,1 km/h (1 Bft)
01.05.2014 15:50 19,2 C 19,4 C 61 % 1009,4 hPa 0,0 l/m 2 min 0 min 2,5 UV-I 698 W/m 7,7 km/h (2 Bft)
01.05.2014 15:52 19,2 C 19,4 C 61 % 1009,4 hPa 0,0 l/m 2 min 0 min 2,5 UV-I 698 W/m 5,1 km/h (1 Bft)
01.05.2014 15:54 19,3 C 19,4 C 60 % 1009,3 hPa 0,0 l/m 2 min 0 min 2,5 UV-I 682 W/m 2,6 km/h (1 Bft)
01.05.2014 15:56 19,2 C 19,4 C 58 % 1009,3 hPa 0,0 l/m 2 min 0 min 2,4 UV-I 668 W/m 0,0 km/h (0 Bft)
01.05.2014 15:58 19,4 C 19,4 C 60 % 1009,3 hPa 0,0 l/m 2 min 0 min 2,3 UV-I 659 W/m 2,6 km/h (1 Bft)
01.05.2014 16:00 19,2 C 19,4 C 59 % 1009,2 hPa 0,0 l/m 2 min 0 min 2,2 UV-I 605 W/m 7,7 km/h (2 Bft)
01.05.2014 16:02 19,3 C 19,4 C 61 % 1009,3 hPa 0,0 l/m 2 min 0 min 2,1 UV-I 619 W/m 5,1 km/h (1 Bft)
01.05.2014 16:06 19,2 C 18,9 C 58 % 1009,2 hPa 0,0 l/m 2 min 0 min 1,7 UV-I 649 W/m 7,7 km/h (2 Bft)
01.05.2014 16:08 18,9 C 18,9 C 61 % 1009,2 hPa 0,0 l/m 0 min 0 min 2,0 UV-I 323 W/m 7,7 km/h (2 Bft)
01.05.2014 16:10 19,1 C 18,9 C 60 % 1009,2 hPa 0,0 l/m 2 min 0 min 2,0 UV-I 629 W/m 2,6 km/h (1 Bft)
01.05.2014 16:12 19,3 C 18,9 C 63 % 1009,1 hPa 0,0 l/m 2 min 0 min 1,9 UV-I 615 W/m 0,0 km/h (0 Bft)
01.05.2014 16:14 19,3 C 18,3 C 63 % 1009,1 hPa 0,0 l/m 2 min 0 min 1,9 UV-I 642 W/m 10,3 km/h (2 Bft)
01.05.2014 16:16 19,1 C 17,8 C 63 % 1009,1 hPa 0,0 l/m 2 min 0 min 1,9 UV-I 664 W/m 15,4 km/h (3 Bft)
01.05.2014 16:18 19,0 C 17,2 C 63 % 1009,1 hPa 0,0 l/m 2 min 0 min 1,8 UV-I 664 W/m 20,6 km/h (4 Bft)
01.05.2014 16:20 18,8 C 17,2 C 62 % 1009,2 hPa 0,0 l/m 2 min 0 min 1,8 UV-I 677 W/m 18,0 km/h (3 Bft)
01.05.2014 16:22 18,6 C 17,2 C 63 % 1009,1 hPa 0,0 l/m 2 min 0 min 1,7 UV-I 671 W/m 12,9 km/h (3 Bft)
01.05.2014 16:24 18,7 C 16,7 C 62 % 1009,1 hPa 0,0 l/m 2 min 0 min 1,6 UV-I 671 W/m 15,4 km/h (3 Bft)
01.05.2014 16:26 18,5 C 16,7 C 63 % 1009,1 hPa 0,0 l/m 2 min 0 min 1,6 UV-I 649 W/m 10,3 km/h (2 Bft)
01.05.2014 16:28 18,6 C 16,7 C 62 % 1009,0 hPa 0,0 l/m 2 min 0 min 1,6 UV-I 613 W/m 10,3 km/h (2 Bft)
01.05.2014 16:30 18,5 C 16,1 C 63 % 1008,9 hPa 0,0 l/m 2 min 0 min 1,5 UV-I 578 W/m 10,3 km/h (2 Bft)
01.05.2014 16:32 18,7 C 15,6 C 63 % 1008,9 hPa 0,0 l/m 2 min 0 min 1,5 UV-I 571 W/m 7,7 km/h (2 Bft)
01.05.2014 16:34 18,6 C 15,6 C 61 % 1009,0 hPa 0,0 l/m 2 min 0 min 1,5 UV-I 570 W/m 15,4 km/h (3 Bft)
01.05.2014 16:36 18,6 C 15,6 C 63 % 1008,9 hPa 0,0 l/m 2 min 0 min 1,5 UV-I 554 W/m 12,9 km/h (3 Bft)
01.05.2014 16:38 18,7 C 16,1 C 63 % 1008,9 hPa 0,0 l/m 2 min 0 min 1,5 UV-I 550 W/m 10,3 km/h (2 Bft)
01.05.2014 16:40 19,0 C 16,1 C 61 % 1008,9 hPa 0,0 l/m 2 min 0 min 1,3 UV-I 508 W/m 12,9 km/h (3 Bft)
01.05.2014 16:42 18,9 C 16,1 C 61 % 1008,9 hPa 0,0 l/m 0 min 0 min 0,9 UV-I 232 W/m 2,6 km/h (1 Bft)
01.05.2014 16:44 18,7 C 15,6 C 60 % 1008,8 hPa 0,0 l/m 0 min 0 min 0,8 UV-I 185 W/m 10,3 km/h (2 Bft)
01.05.2014 16:46 18,6 C 15,0 C 61 % 1008,8 hPa 0,0 l/m 0 min 0 min 0,7 UV-I 179 W/m 7,7 km/h (2 Bft)
01.05.2014 16:48 18,4 C 15,0 C 61 % 1008,9 hPa 0,0 l/m 0 min 0 min 0,7 UV-I 190 W/m 5,1 km/h (1 Bft)
01.05.2014 16:50 18,3 C 15,0 C 62 % 1008,9 hPa 0,0 l/m 0 min 0 min 0,7 UV-I 211 W/m 0,0 km/h (0 Bft)
01.05.2014 16:52 18,2 C 15,0 C 61 % 1008,9 hPa 0,0 l/m 0 min 0 min 0,7 UV-I 262 W/m 2,6 km/h (1 Bft)
01.05.2014 16:54 18,1 C 15,0 C 61 % 1008,9 hPa 0,0 l/m 0 min 0 min 0,7 UV-I 292 W/m 12,9 km/h (3 Bft)
01.05.2014 16:56 18,1 C 14,4 C 61 % 1008,9 hPa 0,0 l/m 0 min 0 min 0,7 UV-I 297 W/m 5,1 km/h (1 Bft)
01.05.2014 16:58 18,3 C 15,0 C 60 % 1008,9 hPa 0,0 l/m 0 min 0 min 0,6 UV-I 278 W/m 0,0 km/h (0 Bft)
01.05.2014 17:00 18,4 C 15,0 C 60 % 1008,8 hPa 0,0 l/m 0 min 0 min 0,6 UV-I 264 W/m 0,0 km/h (0 Bft)
01.05.2014 17:02 18,6 C 15,6 C 62 % 1008,8 hPa 0,0 l/m 0 min 0 min 0,5 UV-I 250 W/m 2,6 km/h (1 Bft)
01.05.2014 17:06 18,8 C 16,1 C 66 % 1008,8 hPa 0,0 l/m 2 min 0 min 0,7 UV-I 332 W/m 0,0 km/h (0 Bft)
01.05.2014 17:08 19,0 C 16,7 C 63 % 1008,7 hPa 0,0 l/m 0 min 0 min 0,6 UV-I 287 W/m 7,7 km/h (2 Bft)
01.05.2014 17:10 19,1 C 17,2 C 63 % 1008,7 hPa 0,0 l/m 0 min 0 min 0,7 UV-I 283 W/m 2,6 km/h (1 Bft)
01.05.2014 17:12 19,0 C 17,2 C 62 % 1008,7 hPa 0,0 l/m 2 min 0 min 0,7 UV-I 302 W/m 10,3 km/h (2 Bft)
01.05.2014 17:14 18,9 C 17,8 C 62 % 1008,8 hPa 0,0 l/m 2 min 0 min 0,7 UV-I 322 W/m 18,0 km/h (3 Bft)
01.05.2014 17:16 18,9 C 17,8 C 63 % 1008,7 hPa 0,0 l/m 2 min 0 min 0,7 UV-I 330 W/m 7,7 km/h (2 Bft)
01.05.2014 17:18 18,8 C 17,8 C 62 % 1008,7 hPa 0,0 l/m 2 min 0 min 0,7 UV-I 362 W/m 10,3 km/h (2 Bft)
01.05.2014 17:20 18,8 C 17,8 C 62 % 1008,7 hPa 0,0 l/m 2 min 0 min 0,6 UV-I 295 W/m 0,0 km/h (0 Bft)
01.05.2014 17:22 18,8 C 18,3 C 62 % 1008,8 hPa 0,0 l/m 0 min 0 min 0,5 UV-I 251 W/m 2,6 km/h (1 Bft)
01.05.2014 17:24 18,8 C 17,8 C 61 % 1008,7 hPa 0,0 l/m 0 min 0 min 0,5 UV-I 239 W/m 2,6 km/h (1 Bft)
01.05.2014 17:26 18,8 C 17,8 C 62 % 1008,7 hPa 0,0 l/m 0 min 0 min 0,5 UV-I 276 W/m 0,0 km/h (0 Bft)
01.05.2014 17:28 18,7 C 17,8 C 62 % 1008,7 hPa 0,0 l/m 0 min 0 min 0,5 UV-I 225 W/m 7,7 km/h (2 Bft)
01.05.2014 17:30 18,5 C 17,2 C 61 % 1008,7 hPa 0,0 l/m 0 min 0 min 0,0 UV-I 206 W/m 7,7 km/h (2 Bft)
01.05.2014 17:32 18,4 C 17,2 C 63 % 1008,6 hPa 0,0 l/m 0 min 0 min 0,0 UV-I 197 W/m 2,6 km/h (1 Bft)
01.05.2014 17:34 18,4 C 17,2 C 63 % 1008,6 hPa 0,0 l/m 0 min 0 min 0,0 UV-I 188 W/m 0,0 km/h (0 Bft)
01.05.2014 17:36 18,6 C 17,2 C 62 % 1008,6 hPa 0,0 l/m 0 min 0 min 0,0 UV-I 172 W/m 2,6 km/h (1 Bft)
01.05.2014 17:38 18,7 C 17,8 C 62 % 1008,6 hPa 0,0 l/m 0 min 0 min 0,0 UV-I 163 W/m 0,0 km/h (0 Bft)
01.05.2014 17:40 18,7 C 17,2 C 63 % 1008,6 hPa 0,0 l/m 0 min 0 min 0,0 UV-I 162 W/m 2,6 km/h (1 Bft)
01.05.2014 17:42 18,6 C 17,2 C 62 % 1008,6 hPa 0,0 l/m 0 min 0 min 0,0 UV-I 160 W/m 10,3 km/h (2 Bft)
01.05.2014 17:44 18,4 C 17,2 C 62 % 1008,6 hPa 0,0 l/m 0 min 0 min 0,0 UV-I 156 W/m 7,7 km/h (2 Bft)
01.05.2014 17:46 18,3 C 17,2 C 63 % 1008,6 hPa 0,0 l/m 0 min 0 min 0,0 UV-I 163 W/m 0,0 km/h (0 Bft)
01.05.2014 17:48 18,3 C 17,2 C 62 % 1008,6 hPa 0,0 l/m 0 min 0 min 0,0 UV-I 165 W/m 0,0 km/h (0 Bft)
01.05.2014 17:50 18,3 C 17,2 C 65 % 1008,6 hPa 0,0 l/m 0 min 0 min 0,0 UV-I 162 W/m 0,0 km/h (0 Bft)
01.05.2014 17:52 18,3 C 17,2 C 63 % 1008,6 hPa 0,0 l/m 0 min 0 min 0,0 UV-I 153 W/m 2,6 km/h (1 Bft)
01.05.2014 17:54 18,2 C 17,2 C 62 % 1008,5 hPa 0,0 l/m 0 min 0 min 0,0 UV-I 149 W/m 12,9 km/h (3 Bft)
01.05.2014 17:56 18,2 C 17,2 C 63 % 1008,5 hPa 0,0 l/m 0 min 0 min 0,0 UV-I 149 W/m 10,3 km/h (2 Bft)
01.05.2014 17:58 18,1 C 17,2 C 62 % 1008,5 hPa 0,0 l/m 0 min 0 min 0,0 UV-I 148 W/m 10,3 km/h (2 Bft)
01.05.2014 18:00 18,1 C 17,2 C 64 % 1008,5 hPa 0,0 l/m 0 min 0 min 0,0 UV-I 144 W/m 2,6 km/h (1 Bft)
01.05.2014 18:02 18,2 C 17,2 C 64 % 1008,5 hPa 0,0 l/m 0 min 0 min 0,0 UV-I 142 W/m 0,0 km/h (0 Bft)
01.05.2014 18:06 18,1 C 16,7 C 63 % 1008,5 hPa 0,0 l/m 0 min 0 min 0,0 UV-I 137 W/m 15,4 km/h (3 Bft)
01.05.2014 18:08 18,1 C 16,7 C 63 % 1008,5 hPa 0,0 l/m 0 min 0 min 0,0 UV-I 128 W/m 10,3 km/h (2 Bft)
01.05.2014 18:10 18,1 C 17,2 C 64 % 1008,6 hPa 0,0 l/m 0 min 0 min 0,0 UV-I 121 W/m 5,1 km/h (1 Bft)
01.05.2014 18:12 18,1 C 17,2 C 63 % 1008,6 hPa 0,0 l/m 0 min 0 min 0,0 UV-I 109 W/m 5,1 km/h (1 Bft)
01.05.2014 18:14 18,1 C 16,7 C 63 % 1008,6 hPa 0,0 l/m 0 min 0 min 0,0 UV-I 88 W/m 0,0 km/h (0 Bft)
01.05.2014 18:16 18,1 C 16,7 C 63 % 1008,6 hPa 0,0 l/m 0 min 0 min 0,0 UV-I 79 W/m 7,7 km/h (2 Bft)
01.05.2014 18:18 18,0 C 16,7 C 62 % 1008,5 hPa 0,0 l/m 0 min 0 min 0,0 UV-I 76 W/m 5,1 km/h (1 Bft)
01.05.2014 18:20 18,0 C 16,7 C 62 % 1008,5 hPa 0,0 l/m 0 min 0 min 0,0 UV-I 74 W/m 2,6 km/h (1 Bft)
01.05.2014 18:22 17,9 C 16,7 C 63 % 1008,4 hPa 0,0 l/m 0 min 0 min 0,0 UV-I 70 W/m 2,6 km/h (1 Bft)
01.05.2014 18:24 17,9 C 16,7 C 62 % 1008,5 hPa 0,0 l/m 0 min 0 min 0,0 UV-I 67 W/m 0,0 km/h (0 Bft)
01.05.2014 18:26 17,9 C 16,7 C 61 % 1008,5 hPa 0,0 l/m 0 min 0 min 0,0 UV-I 65 W/m 2,6 km/h (1 Bft)
01.05.2014 18:28 17,9 C 16,7 C 62 % 1008,5 hPa 0,0 l/m 0 min 0 min 0,0 UV-I 63 W/m 0,0 km/h (0 Bft)
01.05.2014 18:30 17,9 C 16,7 C 62 % 1008,5 hPa 0,0 l/m 0 min 0 min 0,0 UV-I 63 W/m 0,0 km/h (0 Bft)
01.05.2014 18:32 17,9 C 16,1 C 62 % 1008,5 hPa 0,0 l/m 0 min 0 min 0,0 UV-I 65 W/m 0,0 km/h (0 Bft)
01.05.2014 18:34 17,9 C 16,1 C 63 % 1008,5 hPa 0,0 l/m 0 min 0 min 0,0 UV-I 67 W/m 0,0 km/h (0 Bft)
01.05.2014 18:36 17,8 C 16,1 C 62 % 1008,5 hPa 0,0 l/m 0 min 0 min 0,0 UV-I 69 W/m 2,6 km/h (1 Bft)
01.05.2014 18:38 17,9 C 16,1 C 63 % 1008,5 hPa 0,0 l/m 0 min 0 min 0,0 UV-I 67 W/m 0,0 km/h (0 Bft)
01.05.2014 18:40 17,8 C 16,1 C 62 % 1008,5 hPa 0,0 l/m 0 min 0 min 0,0 UV-I 62 W/m 0,0 km/h (0 Bft)
01.05.2014 18:42 17,8 C 16,1 C 63 % 1008,5 hPa 0,0 l/m 0 min 0 min 0,0 UV-I 58 W/m 0,0 km/h (0 Bft)
01.05.2014 18:44 17,8 C 16,1 C 63 % 1008,5 hPa 0,0 l/m 0 min 0 min 0,0 UV-I 60 W/m 0,0 km/h (0 Bft)
01.05.2014 18:46 17,8 C 16,1 C 63 % 1008,5 hPa 0,0 l/m 0 min 0 min 0,0 UV-I 60 W/m 0,0 km/h (0 Bft)
01.05.2014 18:48 17,8 C 16,1 C 63 % 1008,5 hPa 0,0 l/m 0 min 0 min 0,0 UV-I 58 W/m 0,0 km/h (0 Bft)
01.05.2014 18:50 17,8 C 16,1 C 63 % 1008,5 hPa 0,0 l/m 0 min 0 min 0,0 UV-I 53 W/m 2,6 km/h (1 Bft)
01.05.2014 18:52 17,8 C 16,1 C 64 % 1008,5 hPa 0,0 l/m 0 min 0 min 0,0 UV-I 49 W/m 0,0 km/h (0 Bft)
01.05.2014 18:54 17,7 C 16,1 C 64 % 1008,5 hPa 0,0 l/m 0 min 0 min 0,0 UV-I 49 W/m 0,0 km/h (0 Bft)
01.05.2014 18:56 17,7 C 16,1 C 65 % 1008,5 hPa 0,0 l/m 0 min 0 min 0,0 UV-I 51 W/m 2,6 km/h (1 Bft)
01.05.2014 18:58 17,7 C 16,1 C 63 % 1008,5 hPa 0,0 l/m 0 min 0 min 0,0 UV-I 51 W/m 0,0 km/h (0 Bft)
01.05.2014 19:00 17,6 C 16,1 C 64 % 1008,5 hPa 0,0 l/m 0 min 0 min 0,0 UV-I 51 W/m 0,0 km/h (0 Bft)
01.05.2014 19:02 17,6 C 16,1 C 64 % 1008,5 hPa 0,0 l/m 0 min 0 min 0,0 UV-I 56 W/m 0,0 km/h (0 Bft)
01.05.2014 19:06 17,6 C 16,1 C 65 % 1008,6 hPa 0,0 l/m 0 min 0 min 0,0 UV-I 56 W/m 0,0 km/h (0 Bft)
01.05.2014 19:08 17,6 C 16,1 C 67 % 1008,6 hPa 0,0 l/m 0 min 0 min 0,0 UV-I 40 W/m 0,0 km/h (0 Bft)
01.05.2014 19:10 17,5 C 15,6 C 69 % 1008,7 hPa 0,0 l/m 0 min 0 min 0,0 UV-I 28 W/m 0,0 km/h (0 Bft)
01.05.2014 19:12 17,3 C 15,6 C 70 % 1008,7 hPa 0,0 l/m 0 min 0 min 0,0 UV-I 25 W/m 12,9 km/h (3 Bft)
01.05.2014 19:14 16,9 C 15,0 C 72 % 1008,8 hPa 0,0 l/m 0 min 0 min 0,0 UV-I 23 W/m 23,2 km/h (4 Bft)
01.05.2014 19:16 16,5 C 15,0 C 73 % 1008,8 hPa 0,0 l/m 0 min 0 min 0,0 UV-I 25 W/m 15,4 km/h (3 Bft)
01.05.2014 19:18 16,1 C 14,4 C 74 % 1008,9 hPa 0,0 l/m 0 min 0 min 0,0 UV-I 26 W/m 10,3 km/h (2 Bft)
01.05.2014 19:20 15,8 C 14,4 C 75 % 1008,9 hPa 0,0 l/m 0 min 0 min 0,0 UV-I 32 W/m 10,3 km/h (2 Bft)
01.05.2014 19:22 15,4 C 13,9 C 77 % 1008,9 hPa 0,0 l/m 0 min 0 min 0,0 UV-I 32 W/m 7,7 km/h (2 Bft)
01.05.2014 19:24 15,3 C 13,9 C 78 % 1009,0 hPa 0,0 l/m 0 min 0 min 0,0 UV-I 30 W/m 5,1 km/h (1 Bft)
01.05.2014 19:26 15,1 C 13,9 C 79 % 1008,9 hPa 0,0 l/m 0 min 0 min 0,0 UV-I 26 W/m 7,7 km/h (2 Bft)
01.05.2014 19:28 14,9 C 13,9 C 80 % 1008,9 hPa 0,0 l/m 0 min 0 min 0,0 UV-I 25 W/m 10,3 km/h (2 Bft)
01.05.2014 19:30 14,7 C 13,3 C 80 % 1008,9 hPa 0,0 l/m 0 min 0 min 0,0 UV-I 21 W/m 5,1 km/h (1 Bft)
01.05.2014 19:32 14,6 C 13,3 C 81 % 1008,9 hPa 0,0 l/m 0 min 0 min 0,0 UV-I 16 W/m 0,0 km/h (0 Bft)
01.05.2014 19:34 14,6 C 13,3 C 82 % 1008,9 hPa 0,0 l/m 0 min 0 min 0,0 UV-I 14 W/m 10,3 km/h (2 Bft)
01.05.2014 19:36 14,4 C 13,3 C 82 % 1008,9 hPa 0,0 l/m 0 min 0 min 0,0 UV-I 12 W/m 7,7 km/h (2 Bft)
01.05.2014 19:38 14,3 C 13,3 C 82 % 1008,9 hPa 0,0 l/m 0 min 0 min 0,0 UV-I 11 W/m 2,6 km/h (1 Bft)
01.05.2014 19:40 14,2 C 13,3 C 83 % 1008,9 hPa 0,0 l/m 0 min 0 min 0,0 UV-I 11 W/m 0,0 km/h (0 Bft)
01.05.2014 19:42 14,2 C 13,3 C 83 % 1009,0 hPa 0,0 l/m 0 min 0 min 0,0 UV-I 11 W/m 18,0 km/h (3 Bft)
01.05.2014 19:44 14,2 C 13,3 C 83 % 1009,0 hPa 0,0 l/m 0 min 0 min 0,0 UV-I 9 W/m 2,6 km/h (1 Bft)
01.05.2014 19:46 14,2 C 13,3 C 84 % 1008,9 hPa 0,0 l/m 0 min 0 min 0,0 UV-I 9 W/m 0,0 km/h (0 Bft)
01.05.2014 19:48 14,2 C 12,8 C 84 % 1009,0 hPa 0,0 l/m 0 min 2 min 0,0 UV-I 9 W/m 0,0 km/h (0 Bft)
01.05.2014 19:50 14,2 C 12,2 C 84 % 1009,0 hPa 0,0 l/m 0 min 2 min 0,0 UV-I 11 W/m 12,9 km/h (3 Bft)
01.05.2014 19:52 14,2 C 12,2 C 85 % 1009,0 hPa 0,0 l/m 0 min 2 min 0,0 UV-I 11 W/m 0,0 km/h (0 Bft)
01.05.2014 19:54 14,0 C 12,2 C 86 % 1008,9 hPa 0,0 l/m 0 min 2 min 0,0 UV-I 11 W/m 0,0 km/h (0 Bft)
01.05.2014 19:56 13,9 C 11,7 C 86 % 1009,0 hPa 0,0 l/m 0 min 2 min 0,0 UV-I 11 W/m 0,0 km/h (0 Bft)
01.05.2014 19:58 13,8 C 11,7 C 87 % 1009,0 hPa 0,0 l/m 0 min 2 min 0,0 UV-I 11 W/m 0,0 km/h (0 Bft)
01.05.2014 20:00 13,7 C 11,7 C 88 % 1009,0 hPa 0,0 l/m 0 min 2 min 0,0 UV-I 11 W/m 2,6 km/h (1 Bft)
01.05.2014 20:02 13,6 C 11,7 C 88 % 1009,0 hPa 0,2 l/m 0 min 2 min 0,0 UV-I 11 W/m 0,0 km/h (0 Bft)
01.05.2014 20:06 13,4 C 11,7 C 89 % 1009,0 hPa 0,0 l/m 0 min 2 min 0,0 UV-I 9 W/m 10,3 km/h (2 Bft)
01.05.2014 20:08 13,3 C 11,7 C 90 % 1009,0 hPa 0,0 l/m 0 min 2 min 0,0 UV-I 9 W/m 0,0 km/h (0 Bft)
01.05.2014 20:10 13,3 C 11,7 C 90 % 1009,1 hPa 0,0 l/m 0 min 2 min 0,0 UV-I 7 W/m 7,7 km/h (2 Bft)
01.05.2014 20:12 13,2 C 11,7 C 91 % 1009,1 hPa 0,2 l/m 0 min 2 min 0,0 UV-I 7 W/m 5,1 km/h (1 Bft)
01.05.2014 20:14 13,1 C 11,7 C 91 % 1009,2 hPa 0,0 l/m 0 min 2 min 0,0 UV-I 7 W/m 0,0 km/h (0 Bft)
01.05.2014 20:16 13,1 C 11,7 C 92 % 1009,3 hPa 0,0 l/m 0 min 2 min 0,0 UV-I 7 W/m 2,6 km/h (1 Bft)
01.05.2014 20:18 13,1 C 11,7 C 92 % 1009,2 hPa 0,2 l/m 0 min 2 min 0,0 UV-I 5 W/m 0,0 km/h (0 Bft)
01.05.2014 20:20 12,9 C 11,1 C 92 % 1009,2 hPa 0,0 l/m 0 min 2 min 0,0 UV-I 5 W/m 0,0 km/h (0 Bft)
01.05.2014 20:22 12,9 C 11,1 C 92 % 1009,2 hPa 0,0 l/m 0 min 2 min 0,0 UV-I 5 W/m 0,0 km/h (0 Bft)
01.05.2014 20:24 12,9 C 11,7 C 93 % 1009,3 hPa 0,0 l/m 0 min 2 min 0,0 UV-I 5 W/m 5,1 km/h (1 Bft)
01.05.2014 20:26 12,8 C 11,1 C 93 % 1009,2 hPa 0,2 l/m 0 min 2 min 0,0 UV-I 5 W/m 7,7 km/h (2 Bft)
01.05.2014 20:28 12,8 C 11,1 C 93 % 1009,3 hPa 0,0 l/m 0 min 2 min 0,0 UV-I 0 W/m 7,7 km/h (2 Bft)
01.05.2014 20:30 12,7 C 11,1 C 94 % 1009,3 hPa 0,0 l/m 0 min 2 min 0,0 UV-I 0 W/m 10,3 km/h (2 Bft)
01.05.2014 20:32 12,7 C 11,1 C 93 % 1009,3 hPa 0,2 l/m 0 min 2 min 0,0 UV-I 0 W/m 7,7 km/h (2 Bft)
01.05.2014 20:34 12,7 C 11,1 C 94 % 1009,4 hPa 0,0 l/m 0 min 2 min 0,0 UV-I 0 W/m 12,9 km/h (3 Bft)
01.05.2014 20:36 12,6 C 11,1 C 94 % 1009,4 hPa 0,0 l/m 0 min 2 min 0,0 UV-I 0 W/m 7,7 km/h (2 Bft)
01.05.2014 20:38 12,6 C 11,1 C 94 % 1009,4 hPa 0,0 l/m 0 min 2 min 0,0 UV-I 0 W/m 15,4 km/h (3 Bft)
01.05.2014 20:40 12,6 C 11,1 C 94 % 1009,5 hPa 0,0 l/m 0 min 2 min 0,0 UV-I 0 W/m 0,0 km/h (0 Bft)
01.05.2014 20:42 12,6 C 11,1 C 94 % 1009,5 hPa 0,2 l/m 0 min 2 min 0,0 UV-I 0 W/m 2,6 km/h (1 Bft)
01.05.2014 20:44 12,6 C 11,1 C 94 % 1009,6 hPa 0,0 l/m 0 min 2 min 0,0 UV-I 0 W/m 0,0 km/h (0 Bft)
01.05.2014 20:46 12,5 C 11,1 C 95 % 1009,5 hPa 0,0 l/m 0 min 2 min 0,0 UV-I 0 W/m 5,1 km/h (1 Bft)
01.05.2014 20:48 12,5 C 11,1 C 95 % 1009,6 hPa 0,0 l/m 0 min 2 min 0,0 UV-I 0 W/m 0,0 km/h (0 Bft)
01.05.2014 20:50 12,6 C 11,1 C 95 % 1009,6 hPa 0,2 l/m 0 min 2 min 0,0 UV-I 0 W/m 5,1 km/h (1 Bft)
01.05.2014 20:52 12,5 C 11,1 C 95 % 1009,8 hPa 0,0 l/m 0 min 2 min 0,0 UV-I 0 W/m 0,0 km/h (0 Bft)
01.05.2014 20:54 12,5 C 11,1 C 95 % 1009,9 hPa 0,0 l/m 0 min 2 min 0,0 UV-I 0 W/m 10,3 km/h (2 Bft)
01.05.2014 20:56 12,5 C 11,1 C 95 % 1010,0 hPa 0,0 l/m 0 min 2 min 0,0 UV-I 0 W/m 10,3 km/h (2 Bft)
01.05.2014 20:58 12,6 C 11,1 C 95 % 1010,0 hPa 0,0 l/m 0 min 2 min 0,0 UV-I 0 W/m 7,7 km/h (2 Bft)
01.05.2014 21:00 12,6 C 11,1 C 95 % 1010,1 hPa 0,0 l/m 0 min 2 min 0,0 UV-I 0 W/m 12,9 km/h (3 Bft)
01.05.2014 21:02 12,5 C 11,1 C 95 % 1010,0 hPa 0,2 l/m 0 min 2 min 0,0 UV-I 0 W/m 5,1 km/h (1 Bft)
01.05.2014 21:06 12,4 C 11,1 C 95 % 1010,0 hPa 0,2 l/m 0 min 2 min 0,0 UV-I 0 W/m 5,1 km/h (1 Bft)
01.05.2014 21:08 12,4 C 11,1 C 95 % 1010,1 hPa 0,0 l/m 0 min 2 min 0,0 UV-I 0 W/m 2,6 km/h (1 Bft)
01.05.2014 21:10 12,3 C 11,1 C 95 % 1010,1 hPa 0,2 l/m 0 min 2 min 0,0 UV-I 0 W/m 23,2 km/h (4 Bft)
01.05.2014 21:12 12,3 C 11,1 C 95 % 1010,1 hPa 0,2 l/m 0 min 2 min 0,0 UV-I 0 W/m 15,4 km/h (3 Bft)
01.05.2014 21:14 12,2 C 11,1 C 95 % 1010,2 hPa 0,0 l/m 0 min 2 min 0,0 UV-I 0 W/m 18,0 km/h (3 Bft)
01.05.2014 21:16 12,2 C 11,1 C 95 % 1010,3 hPa 0,2 l/m 0 min 2 min 0,0 UV-I 0 W/m 0,0 km/h (0 Bft)
01.05.2014 21:18 12,2 C 11,1 C 95 % 1010,4 hPa 0,0 l/m 0 min 2 min 0,0 UV-I 0 W/m 2,6 km/h (1 Bft)
01.05.2014 21:20 12,2 C 11,1 C 95 % 1010,4 hPa 0,2 l/m 0 min 2 min 0,0 UV-I 0 W/m 0,0 km/h (0 Bft)
01.05.2014 21:22 12,2 C 11,1 C 95 % 1010,4 hPa 0,0 l/m 0 min 2 min 0,0 UV-I 0 W/m 0,0 km/h (0 Bft)
01.05.2014 21:24 12,2 C 11,1 C 95 % 1010,4 hPa 0,2 l/m 0 min 2 min 0,0 UV-I 0 W/m 5,1 km/h (1 Bft)
01.05.2014 21:26 12,1 C 11,1 C 95 % 1010,5 hPa 0,2 l/m 0 min 2 min 0,0 UV-I 0 W/m 2,6 km/h (1 Bft)
01.05.2014 21:28 12,1 C 10,6 C 96 % 1010,5 hPa 0,2 l/m 0 min 2 min 0,0 UV-I 0 W/m 0,0 km/h (0 Bft)
01.05.2014 21:30 12,1 C 10,6 C 96 % 1010,6 hPa 0,0 l/m 0 min 2 min 0,0 UV-I 0 W/m 0,0 km/h (0 Bft)
01.05.2014 21:32 12,0 C 10,6 C 96 % 1010,6 hPa 0,2 l/m 0 min 2 min 0,0 UV-I 0 W/m 12,9 km/h (3 Bft)
01.05.2014 21:34 12,0 C 10,6 C 96 % 1010,6 hPa 0,0 l/m 0 min 2 min 0,0 UV-I 0 W/m 2,6 km/h (1 Bft)
01.05.2014 21:36 12,0 C 10,6 C 96 % 1010,6 hPa 0,2 l/m 0 min 2 min 0,0 UV-I 0 W/m 0,0 km/h (0 Bft)
01.05.2014 21:38 12,0 C 10,6 C 96 % 1010,6 hPa 0,0 l/m 0 min 2 min 0,0 UV-I 0 W/m 0,0 km/h (0 Bft)
01.05.2014 21:40 12,1 C 10,6 C 96 % 1010,6 hPa 0,2 l/m 0 min 2 min 0,0 UV-I 0 W/m 0,0 km/h (0 Bft)
01.05.2014 21:42 12,0 C 11,1 C 96 % 1010,6 hPa 0,0 l/m 0 min 2 min 0,0 UV-I 0 W/m 0,0 km/h (0 Bft)
01.05.2014 21:44 12,0 C 10,6 C 96 % 1010,6 hPa 0,0 l/m 0 min 2 min 0,0 UV-I 0 W/m 2,6 km/h (1 Bft)
01.05.2014 21:46 11,9 C 10,6 C 96 % 1010,6 hPa 0,2 l/m 0 min 2 min 0,0 UV-I 0 W/m 7,7 km/h (2 Bft)
01.05.2014 21:48 11,9 C 10,6 C 96 % 1010,6 hPa 0,0 l/m 0 min 2 min 0,0 UV-I 0 W/m 2,6 km/h (1 Bft)
01.05.2014 21:50 11,9 C 10,6 C 96 % 1010,6 hPa 0,2 l/m 0 min 2 min 0,0 UV-I 0 W/m 0,0 km/h (0 Bft)
01.05.2014 21:52 11,9 C 10,6 C 96 % 1010,6 hPa 0,2 l/m 0 min 2 min 0,0 UV-I 0 W/m 0,0 km/h (0 Bft)
01.05.2014 21:54 11,9 C 10,6 C 96 % 1010,6 hPa 0,4 l/m 0 min 2 min 0,0 UV-I 0 W/m 0,0 km/h (0 Bft)
01.05.2014 21:56 11,9 C 10,6 C 96 % 1010,6 hPa 0,2 l/m 0 min 2 min 0,0 UV-I 0 W/m 2,6 km/h (1 Bft)
01.05.2014 21:58 11,9 C 10,6 C 96 % 1010,6 hPa 0,0 l/m 0 min 2 min 0,0 UV-I 0 W/m 0,0 km/h (0 Bft)
01.05.2014 22:00 11,9 C 10,6 C 96 % 1010,7 hPa 0,4 l/m 0 min 2 min 0,0 UV-I 0 W/m 0,0 km/h (0 Bft)
01.05.2014 22:02 11,9 C 10,6 C 97 % 1010,6 hPa 0,2 l/m 0 min 2 min 0,0 UV-I 0 W/m 0,0 km/h (0 Bft)
01.05.2014 22:06 11,8 C 10,6 C 97 % 1010,6 hPa 0,2 l/m 0 min 2 min 0,0 UV-I 0 W/m 7,7 km/h (2 Bft)
01.05.2014 22:08 11,8 C 10,6 C 97 % 1010,6 hPa 0,2 l/m 0 min 2 min 0,0 UV-I 0 W/m 2,6 km/h (1 Bft)
01.05.2014 22:10 11,8 C 10,6 C 97 % 1010,6 hPa 0,0 l/m 0 min 2 min 0,0 UV-I 0 W/m 0,0 km/h (0 Bft)
01.05.2014 22:12 11,8 C 10,6 C 97 % 1010,6 hPa 0,2 l/m 0 min 2 min 0,0 UV-I 0 W/m 0,0 km/h (0 Bft)
01.05.2014 22:14 11,7 C 10,6 C 97 % 1010,6 hPa 0,0 l/m 0 min 2 min 0,0 UV-I 0 W/m 0,0 km/h (0 Bft)
01.05.2014 22:16 11,7 C 10,6 C 97 % 1010,6 hPa 0,2 l/m 0 min 2 min 0,0 UV-I 0 W/m 0,0 km/h (0 Bft)
01.05.2014 22:18 11,7 C 10,6 C 97 % 1010,6 hPa 0,0 l/m 0 min 2 min 0,0 UV-I 0 W/m 0,0 km/h (0 Bft)
01.05.2014 22:20 11,7 C 10,6 C 97 % 1010,6 hPa 0,2 l/m 0 min 2 min 0,0 UV-I 0 W/m 0,0 km/h (0 Bft)
01.05.2014 22:22 11,7 C 10,6 C 97 % 1010,6 hPa 0,2 l/m 0 min 2 min 0,0 UV-I 0 W/m 0,0 km/h (0 Bft)
01.05.2014 22:24 11,7 C 10,6 C 97 % 1010,6 hPa 0,2 l/m 0 min 2 min 0,0 UV-I 0 W/m 0,0 km/h (0 Bft)
01.05.2014 22:26 11,7 C 10,6 C 97 % 1010,6 hPa 0,0 l/m 0 min 2 min 0,0 UV-I 0 W/m 0,0 km/h (0 Bft)
01.05.2014 22:28 11,7 C 10,6 C 97 % 1010,7 hPa 0,0 l/m 0 min 2 min 0,0 UV-I 0 W/m 0,0 km/h (0 Bft)
01.05.2014 22:30 11,7 C 10,6 C 97 % 1010,7 hPa 0,2 l/m 0 min 2 min 0,0 UV-I 0 W/m 0,0 km/h (0 Bft)
01.05.2014 22:32 11,6 C 10,6 C 97 % 1010,7 hPa 0,2 l/m 0 min 2 min 0,0 UV-I 0 W/m 0,0 km/h (0 Bft)
01.05.2014 22:34 11,7 C 10,6 C 97 % 1010,6 hPa 0,0 l/m 0 min 2 min 0,0 UV-I 0 W/m 0,0 km/h (0 Bft)
01.05.2014 22:36 11,7 C 10,6 C 97 % 1010,6 hPa 0,0 l/m 0 min 2 min 0,0 UV-I 0 W/m 0,0 km/h (0 Bft)
01.05.2014 22:38 11,6 C 10,6 C 97 % 1010,6 hPa 0,2 l/m 0 min 2 min 0,0 UV-I 0 W/m 0,0 km/h (0 Bft)
01.05.2014 22:40 11,6 C 10,6 C 97 % 1010,6 hPa 0,0 l/m 0 min 2 min 0,0 UV-I 0 W/m 0,0 km/h (0 Bft)
01.05.2014 22:42 11,6 C 10,6 C 97 % 1010,6 hPa 0,0 l/m 0 min 2 min 0,0 UV-I 0 W/m 0,0 km/h (0 Bft)
01.05.2014 22:44 11,6 C 10,6 C 97 % 1010,6 hPa 0,2 l/m 0 min 2 min 0,0 UV-I 0 W/m 0,0 km/h (0 Bft)
01.05.2014 22:46 11,6 C 10,6 C 97 % 1010,6 hPa 0,0 l/m 0 min 2 min 0,0 UV-I 0 W/m 0,0 km/h (0 Bft)
01.05.2014 22:48 11,6 C 10,6 C 97 % 1010,5 hPa 0,0 l/m 0 min 2 min 0,0 UV-I 0 W/m 0,0 km/h (0 Bft)
01.05.2014 22:50 11,6 C 10,6 C 97 % 1010,5 hPa 0,2 l/m 0 min 2 min 0,0 UV-I 0 W/m 0,0 km/h (0 Bft)
01.05.2014 22:52 11,6 C 10,6 C 97 % 1010,6 hPa 0,0 l/m 0 min 2 min 0,0 UV-I 0 W/m 0,0 km/h (0 Bft)
01.05.2014 22:54 11,7 C 10,6 C 98 % 1010,5 hPa 0,2 l/m 0 min 2 min 0,0 UV-I 0 W/m 0,0 km/h (0 Bft)
01.05.2014 22:56 11,7 C 10,6 C 98 % 1010,5 hPa 0,0 l/m 0 min 2 min 0,0 UV-I 0 W/m 5,1 km/h (1 Bft)
01.05.2014 22:58 11,7 C 10,6 C 97 % 1010,4 hPa 0,0 l/m 0 min 2 min 0,0 UV-I 0 W/m 5,1 km/h (1 Bft)
01.05.2014 23:00 11,7 C 10,6 C 98 % 1010,4 hPa 0,2 l/m 0 min 2 min 0,0 UV-I 0 W/m 7,7 km/h (2 Bft)
01.05.2014 23:02 11,7 C 10,6 C 98 % 1010,4 hPa 0,2 l/m 0 min 2 min 0,0 UV-I 0 W/m 7,7 km/h (2 Bft)
01.05.2014 23:06 11,7 C 10,6 C 98 % 1010,2 hPa 0,2 l/m 0 min 2 min 0,0 UV-I 0 W/m 15,4 km/h (3 Bft)
01.05.2014 23:08 11,7 C 10,6 C 98 % 1010,2 hPa 0,0 l/m 0 min 2 min 0,0 UV-I 0 W/m 12,9 km/h (3 Bft)
01.05.2014 23:10 11,7 C 10,6 C 98 % 1010,2 hPa 0,2 l/m 0 min 2 min 0,0 UV-I 0 W/m 12,9 km/h (3 Bft)
01.05.2014 23:12 11,6 C 10,6 C 98 % 1010,1 hPa 0,0 l/m 0 min 2 min 0,0 UV-I 0 W/m 15,4 km/h (3 Bft)
01.05.2014 23:14 11,6 C 10,6 C 98 % 1010,1 hPa 0,0 l/m 0 min 2 min 0,0 UV-I 0 W/m 20,6 km/h (4 Bft)
01.05.2014 23:16 11,6 C 10,6 C 98 % 1010,1 hPa 0,2 l/m 0 min 2 min 0,0 UV-I 0 W/m 12,9 km/h (3 Bft)
01.05.2014 23:18 11,6 C 10,6 C 98 % 1010,2 hPa 0,0 l/m 0 min 2 min 0,0 UV-I 0 W/m 12,9 km/h (3 Bft)
01.05.2014 23:20 11,6 C 10,6 C 98 % 1010,2 hPa 0,0 l/m 0 min 2 min 0,0 UV-I 0 W/m 7,7 km/h (2 Bft)
01.05.2014 23:22 11,6 C 10,0 C 98 % 1010,2 hPa 0,0 l/m 0 min 2 min 0,0 UV-I 0 W/m 5,1 km/h (1 Bft)
01.05.2014 23:24 11,6 C 10,6 C 97 % 1010,3 hPa 0,2 l/m 0 min 2 min 0,0 UV-I 0 W/m 0,0 km/h (0 Bft)
01.05.2014 23:26 11,6 C 10,6 C 98 % 1010,2 hPa 0,0 l/m 0 min 2 min 0,0 UV-I 0 W/m 0,0 km/h (0 Bft)
01.05.2014 23:28 11,7 C 10,6 C 98 % 1010,2 hPa 0,0 l/m 0 min 2 min 0,0 UV-I 0 W/m 5,1 km/h (1 Bft)
01.05.2014 23:30 11,7 C 10,6 C 98 % 1010,2 hPa 0,0 l/m 0 min 2 min 0,0 UV-I 0 W/m 5,1 km/h (1 Bft)
01.05.2014 23:32 11,8 C 10,6 C 98 % 1010,3 hPa 0,0 l/m 0 min 2 min 0,0 UV-I 0 W/m 12,9 km/h (3 Bft)
01.05.2014 23:34 11,8 C 10,6 C 98 % 1010,2 hPa 0,0 l/m 0 min 2 min 0,0 UV-I 0 W/m 12,9 km/h (3 Bft)
01.05.2014 23:36 11,8 C 10,6 C 98 % 1010,2 hPa 0,0 l/m 0 min 2 min 0,0 UV-I 0 W/m 7,7 km/h (2 Bft)
01.05.2014 23:38 11,9 C 10,6 C 97 % 1010,2 hPa 0,0 l/m 0 min 2 min 0,0 UV-I 0 W/m 12,9 km/h (3 Bft)
01.05.2014 23:40 11,9 C 10,6 C 98 % 1010,2 hPa 0,0 l/m 0 min 2 min 0,0 UV-I 0 W/m 10,3 km/h (2 Bft)
01.05.2014 23:42 11,9 C 10,6 C 98 % 1010,2 hPa 0,2 l/m 0 min 2 min 0,0 UV-I 0 W/m 12,9 km/h (3 Bft)
01.05.2014 23:44 11,9 C 10,6 C 98 % 1010,2 hPa 0,0 l/m 0 min 2 min 0,0 UV-I 0 W/m 10,3 km/h (2 Bft)
01.05.2014 23:46 11,9 C 10,6 C 98 % 1010,3 hPa 0,0 l/m 0 min 2 min 0,0 UV-I 0 W/m 10,3 km/h (2 Bft)
01.05.2014 23:48 11,9 C 10,6 C 98 % 1010,1 hPa 0,0 l/m 0 min 2 min 0,0 UV-I 0 W/m 10,3 km/h (2 Bft)
01.05.2014 23:50 11,9 C 10,6 C 98 % 1010,2 hPa 0,0 l/m 0 min 2 min 0,0 UV-I 0 W/m 7,7 km/h (2 Bft)
01.05.2014 23:52 11,9 C 10,6 C 98 % 1010,2 hPa 0,0 l/m 0 min 2 min 0,0 UV-I 0 W/m 0,0 km/h (0 Bft)
01.05.2014 23:54 11,9 C 10,6 C 98 % 1010,1 hPa 0,0 l/m 0 min 2 min 0,0 UV-I 0 W/m 2,6 km/h (1 Bft)
01.05.2014 23:56 11,9 C 10,6 C 97 % 1010,2 hPa 0,0 l/m 0 min 2 min 0,0 UV-I 0 W/m 5,1 km/h (1 Bft)
01.05.2014 23:58 11,9 C 10,6 C 97 % 1010,2 hPa 0,0 l/m 0 min 2 min 0,0 UV-I 0 W/m 0,0 km/h (0 Bft)
_ Min-Zeit 06:48 05:16 15:56 18:22 - - - - - 00:00
Minimum _ 9,8 C 8,9 C 58 % 1008,4 hPa - - - - - 0,0 km/h (0 Bft)
_ Max-Zeit 15:46 12:34 22:54 00:06 21:54 08:40 04:52 13:56 13:52 19:14
Maximum _ 19,6 C 20,0 C 98 % 1011,8 hPa 0,4 l/m 2 min 2 min 3,4 UV-I 826 W/m 23,2 km/h
N-NW (4 Bft)
Durchschnitt _ 13,8 C 13,3 C 84 % 1010,6 hPa #9,6 l/m #5:54 h #4:08 h 1,9 UV-I 325 W/m 3,2 km/h (1 Bft)
© 2014 W. Hausmann